<?xml version="1.0" encoding="UTF-8" standalone="no" ?>
<gpx xmlns="http://www.topografix.com/GPX/1/1" xmlns:xsi="http://www.w3.org/2001/XMLSchema-instance" xsi:schemaLocation="http://www.topografix.com/GPX/1/1 http://www.topografix.com/GPX/1/1/gpx.xsd" version="1.1" creator="VisuGPX - https://www.visugpx.com">
  <metadata>
    <name>10743950-2020 - 37 km</name>
  </metadata>
  <trk>
    <name><![CDATA[10743950-2020 - 37 km]]></name>
    <trkseg>
      <trkpt lat="46.24865" lon="6.47273">
        <ele>956</ele>
        <time>2020-08-30T17:00:31Z</time>
      </trkpt>
      <trkpt lat="46.24807" lon="6.4732">
        <ele>956</ele>
        <time>2020-08-30T17:00:47Z</time>
      </trkpt>
      <trkpt lat="46.24809" lon="6.47313">
        <ele>955</ele>
        <time>2020-08-30T17:00:48Z</time>
      </trkpt>
      <trkpt lat="46.24843" lon="6.47337">
        <ele>959</ele>
        <time>2020-08-30T17:00:57Z</time>
      </trkpt>
      <trkpt lat="46.24852" lon="6.47341">
        <ele>959</ele>
        <time>2020-08-30T17:00:59Z</time>
      </trkpt>
      <trkpt lat="46.2486" lon="6.47339">
        <ele>960</ele>
        <time>2020-08-30T17:01:01Z</time>
      </trkpt>
      <trkpt lat="46.24879" lon="6.47332">
        <ele>960</ele>
        <time>2020-08-30T17:01:05Z</time>
      </trkpt>
      <trkpt lat="46.24972" lon="6.47258">
        <ele>962</ele>
        <time>2020-08-30T17:01:30Z</time>
      </trkpt>
      <trkpt lat="46.24984" lon="6.47252">
        <ele>963</ele>
        <time>2020-08-30T17:01:33Z</time>
      </trkpt>
      <trkpt lat="46.24995" lon="6.4725">
        <ele>964</ele>
        <time>2020-08-30T17:01:36Z</time>
      </trkpt>
      <trkpt lat="46.25053" lon="6.47256">
        <ele>966</ele>
        <time>2020-08-30T17:01:49Z</time>
      </trkpt>
      <trkpt lat="46.25048" lon="6.47256">
        <ele>966</ele>
        <time>2020-08-30T17:01:50Z</time>
      </trkpt>
      <trkpt lat="46.25069" lon="6.47286">
        <ele>969</ele>
        <time>2020-08-30T17:01:57Z</time>
      </trkpt>
      <trkpt lat="46.25094" lon="6.47295">
        <ele>971</ele>
        <time>2020-08-30T17:02:03Z</time>
      </trkpt>
      <trkpt lat="46.25211" lon="6.47354">
        <ele>982</ele>
        <time>2020-08-30T17:02:32Z</time>
      </trkpt>
      <trkpt lat="46.2524" lon="6.47362">
        <ele>984</ele>
        <time>2020-08-30T17:02:39Z</time>
      </trkpt>
      <trkpt lat="46.25272" lon="6.47384">
        <ele>988</ele>
        <time>2020-08-30T17:02:47Z</time>
      </trkpt>
      <trkpt lat="46.25357" lon="6.47403">
        <ele>995</ele>
        <time>2020-08-30T17:03:07Z</time>
      </trkpt>
      <trkpt lat="46.25386" lon="6.474">
        <ele>996</ele>
        <time>2020-08-30T17:03:14Z</time>
      </trkpt>
      <trkpt lat="46.254" lon="6.47391">
        <ele>995</ele>
        <time>2020-08-30T17:03:18Z</time>
      </trkpt>
      <trkpt lat="46.25445" lon="6.47418">
        <ele>999</ele>
        <time>2020-08-30T17:03:29Z</time>
      </trkpt>
      <trkpt lat="46.2547" lon="6.47429">
        <ele>1001</ele>
        <time>2020-08-30T17:03:35Z</time>
      </trkpt>
      <trkpt lat="46.25509" lon="6.47453">
        <ele>1004</ele>
        <time>2020-08-30T17:03:45Z</time>
      </trkpt>
      <trkpt lat="46.25543" lon="6.47479">
        <ele>1004</ele>
        <time>2020-08-30T17:03:54Z</time>
      </trkpt>
      <trkpt lat="46.25582" lon="6.47489">
        <ele>1000</ele>
        <time>2020-08-30T17:04:03Z</time>
      </trkpt>
      <trkpt lat="46.2562" lon="6.47513">
        <ele>1001</ele>
        <time>2020-08-30T17:04:13Z</time>
      </trkpt>
      <trkpt lat="46.25628" lon="6.4752">
        <ele>1002</ele>
        <time>2020-08-30T17:04:15Z</time>
      </trkpt>
      <trkpt lat="46.25709" lon="6.47636">
        <ele>1009</ele>
        <time>2020-08-30T17:04:42Z</time>
      </trkpt>
      <trkpt lat="46.25752" lon="6.4768">
        <ele>1012</ele>
        <time>2020-08-30T17:04:54Z</time>
      </trkpt>
      <trkpt lat="46.25813" lon="6.47721">
        <ele>1013</ele>
        <time>2020-08-30T17:05:10Z</time>
      </trkpt>
      <trkpt lat="46.25825" lon="6.47725">
        <ele>1013</ele>
        <time>2020-08-30T17:05:13Z</time>
      </trkpt>
      <trkpt lat="46.25864" lon="6.47729">
        <ele>1013</ele>
        <time>2020-08-30T17:05:22Z</time>
      </trkpt>
      <trkpt lat="46.25899" lon="6.4775">
        <ele>1014</ele>
        <time>2020-08-30T17:05:31Z</time>
      </trkpt>
      <trkpt lat="46.25932" lon="6.47783">
        <ele>1018</ele>
        <time>2020-08-30T17:05:40Z</time>
      </trkpt>
      <trkpt lat="46.25939" lon="6.47795">
        <ele>1019</ele>
        <time>2020-08-30T17:05:43Z</time>
      </trkpt>
      <trkpt lat="46.25966" lon="6.47782">
        <ele>1021</ele>
        <time>2020-08-30T17:05:49Z</time>
      </trkpt>
      <trkpt lat="46.25976" lon="6.47769">
        <ele>1021</ele>
        <time>2020-08-30T17:05:52Z</time>
      </trkpt>
      <trkpt lat="46.25991" lon="6.47707">
        <ele>1019</ele>
        <time>2020-08-30T17:06:03Z</time>
      </trkpt>
      <trkpt lat="46.26035" lon="6.47715">
        <ele>1030</ele>
        <time>2020-08-30T17:06:13Z</time>
      </trkpt>
      <trkpt lat="46.26061" lon="6.47705">
        <ele>1035</ele>
        <time>2020-08-30T17:06:20Z</time>
      </trkpt>
      <trkpt lat="46.26058" lon="6.47701">
        <ele>1034</ele>
        <time>2020-08-30T17:06:21Z</time>
      </trkpt>
      <trkpt lat="46.26061" lon="6.47705">
        <ele>1035</ele>
        <time>2020-08-30T17:06:22Z</time>
      </trkpt>
      <trkpt lat="46.26071" lon="6.47705">
        <ele>1038</ele>
        <time>2020-08-30T17:06:24Z</time>
      </trkpt>
      <trkpt lat="46.26085" lon="6.47695">
        <ele>1039</ele>
        <time>2020-08-30T17:06:28Z</time>
      </trkpt>
      <trkpt lat="46.261" lon="6.47693">
        <ele>1043</ele>
        <time>2020-08-30T17:06:31Z</time>
      </trkpt>
      <trkpt lat="46.26105" lon="6.4769">
        <ele>1043</ele>
        <time>2020-08-30T17:06:32Z</time>
      </trkpt>
      <trkpt lat="46.26125" lon="6.47657">
        <ele>1042</ele>
        <time>2020-08-30T17:06:39Z</time>
      </trkpt>
      <trkpt lat="46.26139" lon="6.47639">
        <ele>1042</ele>
        <time>2020-08-30T17:06:44Z</time>
      </trkpt>
      <trkpt lat="46.26196" lon="6.47593">
        <ele>1044</ele>
        <time>2020-08-30T17:06:59Z</time>
      </trkpt>
      <trkpt lat="46.26208" lon="6.47587">
        <ele>1044</ele>
        <time>2020-08-30T17:07:02Z</time>
      </trkpt>
      <trkpt lat="46.26262" lon="6.47572">
        <ele>1051</ele>
        <time>2020-08-30T17:07:15Z</time>
      </trkpt>
      <trkpt lat="46.26269" lon="6.47567">
        <ele>1051</ele>
        <time>2020-08-30T17:07:17Z</time>
      </trkpt>
      <trkpt lat="46.26302" lon="6.4753">
        <ele>1051</ele>
        <time>2020-08-30T17:07:26Z</time>
      </trkpt>
      <trkpt lat="46.26316" lon="6.47519">
        <ele>1052</ele>
        <time>2020-08-30T17:07:30Z</time>
      </trkpt>
      <trkpt lat="46.2633" lon="6.47512">
        <ele>1053</ele>
        <time>2020-08-30T17:07:34Z</time>
      </trkpt>
      <trkpt lat="46.26352" lon="6.47509">
        <ele>1056</ele>
        <time>2020-08-30T17:07:39Z</time>
      </trkpt>
      <trkpt lat="46.26363" lon="6.47493">
        <ele>1056</ele>
        <time>2020-08-30T17:07:42Z</time>
      </trkpt>
      <trkpt lat="46.26373" lon="6.47466">
        <ele>1056</ele>
        <time>2020-08-30T17:07:47Z</time>
      </trkpt>
      <trkpt lat="46.26383" lon="6.47468">
        <ele>1059</ele>
        <time>2020-08-30T17:07:50Z</time>
      </trkpt>
      <trkpt lat="46.26398" lon="6.47463">
        <ele>1061</ele>
        <time>2020-08-30T17:07:53Z</time>
      </trkpt>
      <trkpt lat="46.26454" lon="6.47398">
        <ele>1069</ele>
        <time>2020-08-30T17:08:10Z</time>
      </trkpt>
      <trkpt lat="46.2647" lon="6.47384">
        <ele>1072</ele>
        <time>2020-08-30T17:08:14Z</time>
      </trkpt>
      <trkpt lat="46.26501" lon="6.47365">
        <ele>1079</ele>
        <time>2020-08-30T17:08:22Z</time>
      </trkpt>
      <trkpt lat="46.26513" lon="6.47347">
        <ele>1081</ele>
        <time>2020-08-30T17:08:26Z</time>
      </trkpt>
      <trkpt lat="46.26535" lon="6.47294">
        <ele>1082</ele>
        <time>2020-08-30T17:08:36Z</time>
      </trkpt>
      <trkpt lat="46.26546" lon="6.47278">
        <ele>1083</ele>
        <time>2020-08-30T17:08:40Z</time>
      </trkpt>
      <trkpt lat="46.26573" lon="6.4725">
        <ele>1088</ele>
        <time>2020-08-30T17:08:48Z</time>
      </trkpt>
      <trkpt lat="46.2659" lon="6.47237">
        <ele>1091</ele>
        <time>2020-08-30T17:08:52Z</time>
      </trkpt>
      <trkpt lat="46.26621" lon="6.47225">
        <ele>1097</ele>
        <time>2020-08-30T17:09:00Z</time>
      </trkpt>
      <trkpt lat="46.26662" lon="6.47191">
        <ele>1103</ele>
        <time>2020-08-30T17:09:11Z</time>
      </trkpt>
      <trkpt lat="46.26676" lon="6.47162">
        <ele>1105</ele>
        <time>2020-08-30T17:09:16Z</time>
      </trkpt>
      <trkpt lat="46.26689" lon="6.47126">
        <ele>1107</ele>
        <time>2020-08-30T17:09:23Z</time>
      </trkpt>
      <trkpt lat="46.26694" lon="6.47069">
        <ele>1103</ele>
        <time>2020-08-30T17:09:32Z</time>
      </trkpt>
      <trkpt lat="46.26711" lon="6.47023">
        <ele>1102</ele>
        <time>2020-08-30T17:09:41Z</time>
      </trkpt>
      <trkpt lat="46.26739" lon="6.46975">
        <ele>1102</ele>
        <time>2020-08-30T17:09:51Z</time>
      </trkpt>
      <trkpt lat="46.26806" lon="6.46888">
        <ele>1098</ele>
        <time>2020-08-30T17:10:12Z</time>
      </trkpt>
      <trkpt lat="46.26818" lon="6.46881">
        <ele>1099</ele>
        <time>2020-08-30T17:10:15Z</time>
      </trkpt>
      <trkpt lat="46.26825" lon="6.46867">
        <ele>1097</ele>
        <time>2020-08-30T17:10:18Z</time>
      </trkpt>
      <trkpt lat="46.2685" lon="6.46838">
        <ele>1093</ele>
        <time>2020-08-30T17:10:25Z</time>
      </trkpt>
      <trkpt lat="46.26882" lon="6.46795">
        <ele>1090</ele>
        <time>2020-08-30T17:10:35Z</time>
      </trkpt>
      <trkpt lat="46.26899" lon="6.4676">
        <ele>1088</ele>
        <time>2020-08-30T17:10:42Z</time>
      </trkpt>
      <trkpt lat="46.26912" lon="6.46714">
        <ele>1086</ele>
        <time>2020-08-30T17:10:50Z</time>
      </trkpt>
      <trkpt lat="46.26912" lon="6.46678">
        <ele>1084</ele>
        <time>2020-08-30T17:10:56Z</time>
      </trkpt>
      <trkpt lat="46.26884" lon="6.46623">
        <ele>1078</ele>
        <time>2020-08-30T17:11:07Z</time>
      </trkpt>
      <trkpt lat="46.26864" lon="6.46592">
        <ele>1075</ele>
        <time>2020-08-30T17:11:14Z</time>
      </trkpt>
      <trkpt lat="46.26922" lon="6.46545">
        <ele>1081</ele>
        <time>2020-08-30T17:11:30Z</time>
      </trkpt>
      <trkpt lat="46.26942" lon="6.46544">
        <ele>1083</ele>
        <time>2020-08-30T17:11:34Z</time>
      </trkpt>
      <trkpt lat="46.26951" lon="6.46538">
        <ele>1083</ele>
        <time>2020-08-30T17:11:37Z</time>
      </trkpt>
      <trkpt lat="46.26972" lon="6.46549">
        <ele>1085</ele>
        <time>2020-08-30T17:11:42Z</time>
      </trkpt>
      <trkpt lat="46.27" lon="6.46535">
        <ele>1087</ele>
        <time>2020-08-30T17:11:49Z</time>
      </trkpt>
      <trkpt lat="46.27024" lon="6.46514">
        <ele>1087</ele>
        <time>2020-08-30T17:11:55Z</time>
      </trkpt>
      <trkpt lat="46.27029" lon="6.46504">
        <ele>1087</ele>
        <time>2020-08-30T17:11:57Z</time>
      </trkpt>
      <trkpt lat="46.27047" lon="6.46531">
        <ele>1088</ele>
        <time>2020-08-30T17:12:03Z</time>
      </trkpt>
      <trkpt lat="46.27057" lon="6.46564">
        <ele>1089</ele>
        <time>2020-08-30T17:12:09Z</time>
      </trkpt>
      <trkpt lat="46.27114" lon="6.46587">
        <ele>1092</ele>
        <time>2020-08-30T17:12:23Z</time>
      </trkpt>
      <trkpt lat="46.27133" lon="6.46583">
        <ele>1092</ele>
        <time>2020-08-30T17:12:27Z</time>
      </trkpt>
      <trkpt lat="46.2715" lon="6.46591">
        <ele>1092</ele>
        <time>2020-08-30T17:12:32Z</time>
      </trkpt>
      <trkpt lat="46.27153" lon="6.46611">
        <ele>1093</ele>
        <time>2020-08-30T17:12:35Z</time>
      </trkpt>
      <trkpt lat="46.27203" lon="6.46613">
        <ele>1094</ele>
        <time>2020-08-30T17:12:47Z</time>
      </trkpt>
      <trkpt lat="46.27239" lon="6.46605">
        <ele>1095</ele>
        <time>2020-08-30T17:12:55Z</time>
      </trkpt>
      <trkpt lat="46.27282" lon="6.46605">
        <ele>1097</ele>
        <time>2020-08-30T17:13:05Z</time>
      </trkpt>
      <trkpt lat="46.27389" lon="6.46627">
        <ele>1105</ele>
        <time>2020-08-30T17:13:30Z</time>
      </trkpt>
      <trkpt lat="46.27444" lon="6.46657">
        <ele>1109</ele>
        <time>2020-08-30T17:13:44Z</time>
      </trkpt>
      <trkpt lat="46.27499" lon="6.46702">
        <ele>1119</ele>
        <time>2020-08-30T17:13:59Z</time>
      </trkpt>
      <trkpt lat="46.27509" lon="6.46676">
        <ele>1115</ele>
        <time>2020-08-30T17:14:04Z</time>
      </trkpt>
      <trkpt lat="46.27517" lon="6.46631">
        <ele>1113</ele>
        <time>2020-08-30T17:14:11Z</time>
      </trkpt>
      <trkpt lat="46.27526" lon="6.46609">
        <ele>1113</ele>
        <time>2020-08-30T17:14:15Z</time>
      </trkpt>
      <trkpt lat="46.27524" lon="6.46594">
        <ele>1113</ele>
        <time>2020-08-30T17:14:18Z</time>
      </trkpt>
      <trkpt lat="46.27515" lon="6.46576">
        <ele>1112</ele>
        <time>2020-08-30T17:14:21Z</time>
      </trkpt>
      <trkpt lat="46.27515" lon="6.46562">
        <ele>1113</ele>
        <time>2020-08-30T17:14:24Z</time>
      </trkpt>
      <trkpt lat="46.27534" lon="6.46514">
        <ele>1116</ele>
        <time>2020-08-30T17:14:32Z</time>
      </trkpt>
      <trkpt lat="46.27567" lon="6.4638">
        <ele>1122</ele>
        <time>2020-08-30T17:14:55Z</time>
      </trkpt>
      <trkpt lat="46.27566" lon="6.46359">
        <ele>1122</ele>
        <time>2020-08-30T17:14:59Z</time>
      </trkpt>
      <trkpt lat="46.27573" lon="6.46345">
        <ele>1122</ele>
        <time>2020-08-30T17:15:02Z</time>
      </trkpt>
      <trkpt lat="46.27575" lon="6.46331">
        <ele>1123</ele>
        <time>2020-08-30T17:15:04Z</time>
      </trkpt>
      <trkpt lat="46.27589" lon="6.46292">
        <ele>1128</ele>
        <time>2020-08-30T17:15:11Z</time>
      </trkpt>
      <trkpt lat="46.27597" lon="6.46258">
        <ele>1133</ele>
        <time>2020-08-30T17:15:17Z</time>
      </trkpt>
      <trkpt lat="46.27478" lon="6.46212">
        <ele>1130</ele>
        <time>2020-08-30T17:15:46Z</time>
      </trkpt>
      <trkpt lat="46.27426" lon="6.46188">
        <ele>1128</ele>
        <time>2020-08-30T17:15:58Z</time>
      </trkpt>
      <trkpt lat="46.27307" lon="6.46144">
        <ele>1123</ele>
        <time>2020-08-30T17:16:27Z</time>
      </trkpt>
      <trkpt lat="46.27262" lon="6.46119">
        <ele>1123</ele>
        <time>2020-08-30T17:16:38Z</time>
      </trkpt>
      <trkpt lat="46.27232" lon="6.46077">
        <ele>1126</ele>
        <time>2020-08-30T17:16:48Z</time>
      </trkpt>
      <trkpt lat="46.27187" lon="6.46081">
        <ele>1120</ele>
        <time>2020-08-30T17:16:59Z</time>
      </trkpt>
      <trkpt lat="46.27169" lon="6.46077">
        <ele>1120</ele>
        <time>2020-08-30T17:17:03Z</time>
      </trkpt>
      <trkpt lat="46.27138" lon="6.4606">
        <ele>1121</ele>
        <time>2020-08-30T17:17:11Z</time>
      </trkpt>
      <trkpt lat="46.27115" lon="6.46043">
        <ele>1123</ele>
        <time>2020-08-30T17:17:17Z</time>
      </trkpt>
      <trkpt lat="46.27085" lon="6.46031">
        <ele>1123</ele>
        <time>2020-08-30T17:17:24Z</time>
      </trkpt>
      <trkpt lat="46.27049" lon="6.46029">
        <ele>1122</ele>
        <time>2020-08-30T17:17:32Z</time>
      </trkpt>
      <trkpt lat="46.27039" lon="6.46032">
        <ele>1121</ele>
        <time>2020-08-30T17:17:35Z</time>
      </trkpt>
      <trkpt lat="46.27006" lon="6.46062">
        <ele>1113</ele>
        <time>2020-08-30T17:17:44Z</time>
      </trkpt>
      <trkpt lat="46.26955" lon="6.46084">
        <ele>1107</ele>
        <time>2020-08-30T17:17:56Z</time>
      </trkpt>
      <trkpt lat="46.26933" lon="6.46087">
        <ele>1107</ele>
        <time>2020-08-30T17:18:01Z</time>
      </trkpt>
      <trkpt lat="46.26851" lon="6.46091">
        <ele>1102</ele>
        <time>2020-08-30T17:18:21Z</time>
      </trkpt>
      <trkpt lat="46.26811" lon="6.46078">
        <ele>1101</ele>
        <time>2020-08-30T17:18:30Z</time>
      </trkpt>
      <trkpt lat="46.26748" lon="6.46068">
        <ele>1096</ele>
        <time>2020-08-30T17:18:45Z</time>
      </trkpt>
      <trkpt lat="46.26742" lon="6.46071">
        <ele>1095</ele>
        <time>2020-08-30T17:18:46Z</time>
      </trkpt>
      <trkpt lat="46.26729" lon="6.46108">
        <ele>1091</ele>
        <time>2020-08-30T17:18:53Z</time>
      </trkpt>
      <trkpt lat="46.26723" lon="6.46114">
        <ele>1090</ele>
        <time>2020-08-30T17:18:55Z</time>
      </trkpt>
      <trkpt lat="46.26713" lon="6.46113">
        <ele>1090</ele>
        <time>2020-08-30T17:18:57Z</time>
      </trkpt>
      <trkpt lat="46.2666" lon="6.46083">
        <ele>1092</ele>
        <time>2020-08-30T17:19:10Z</time>
      </trkpt>
      <trkpt lat="46.26638" lon="6.46076">
        <ele>1091</ele>
        <time>2020-08-30T17:19:16Z</time>
      </trkpt>
      <trkpt lat="46.26622" lon="6.46078">
        <ele>1090</ele>
        <time>2020-08-30T17:19:19Z</time>
      </trkpt>
      <trkpt lat="46.26598" lon="6.46092">
        <ele>1087</ele>
        <time>2020-08-30T17:19:25Z</time>
      </trkpt>
      <trkpt lat="46.2655" lon="6.46107">
        <ele>1079</ele>
        <time>2020-08-30T17:19:37Z</time>
      </trkpt>
      <trkpt lat="46.26527" lon="6.46043">
        <ele>1084</ele>
        <time>2020-08-30T17:19:49Z</time>
      </trkpt>
      <trkpt lat="46.26504" lon="6.46001">
        <ele>1086</ele>
        <time>2020-08-30T17:19:57Z</time>
      </trkpt>
      <trkpt lat="46.26478" lon="6.45965">
        <ele>1090</ele>
        <time>2020-08-30T17:20:06Z</time>
      </trkpt>
      <trkpt lat="46.26454" lon="6.45924">
        <ele>1095</ele>
        <time>2020-08-30T17:20:14Z</time>
      </trkpt>
      <trkpt lat="46.26357" lon="6.45813">
        <ele>1098</ele>
        <time>2020-08-30T17:20:43Z</time>
      </trkpt>
      <trkpt lat="46.2625" lon="6.45721">
        <ele>1101</ele>
        <time>2020-08-30T17:21:12Z</time>
      </trkpt>
      <trkpt lat="46.26235" lon="6.45703">
        <ele>1102</ele>
        <time>2020-08-30T17:21:17Z</time>
      </trkpt>
      <trkpt lat="46.26215" lon="6.45663">
        <ele>1106</ele>
        <time>2020-08-30T17:21:25Z</time>
      </trkpt>
      <trkpt lat="46.26205" lon="6.45618">
        <ele>1110</ele>
        <time>2020-08-30T17:21:32Z</time>
      </trkpt>
      <trkpt lat="46.26151" lon="6.45566">
        <ele>1119</ele>
        <time>2020-08-30T17:21:48Z</time>
      </trkpt>
      <trkpt lat="46.2613" lon="6.45576">
        <ele>1121</ele>
        <time>2020-08-30T17:21:53Z</time>
      </trkpt>
      <trkpt lat="46.26125" lon="6.45574">
        <ele>1122</ele>
        <time>2020-08-30T17:21:54Z</time>
      </trkpt>
      <trkpt lat="46.26082" lon="6.45583">
        <ele>1124</ele>
        <time>2020-08-30T17:22:04Z</time>
      </trkpt>
      <trkpt lat="46.26055" lon="6.45594">
        <ele>1122</ele>
        <time>2020-08-30T17:22:11Z</time>
      </trkpt>
      <trkpt lat="46.2598" lon="6.45586">
        <ele>1127</ele>
        <time>2020-08-30T17:22:28Z</time>
      </trkpt>
      <trkpt lat="46.25892" lon="6.45634">
        <ele>1119</ele>
        <time>2020-08-30T17:22:50Z</time>
      </trkpt>
      <trkpt lat="46.2583" lon="6.45641">
        <ele>1117</ele>
        <time>2020-08-30T17:23:05Z</time>
      </trkpt>
      <trkpt lat="46.25796" lon="6.45635">
        <ele>1116</ele>
        <time>2020-08-30T17:23:13Z</time>
      </trkpt>
      <trkpt lat="46.25759" lon="6.45614">
        <ele>1122</ele>
        <time>2020-08-30T17:23:22Z</time>
      </trkpt>
      <trkpt lat="46.25731" lon="6.45607">
        <ele>1123</ele>
        <time>2020-08-30T17:23:29Z</time>
      </trkpt>
      <trkpt lat="46.25688" lon="6.45607">
        <ele>1119</ele>
        <time>2020-08-30T17:23:39Z</time>
      </trkpt>
      <trkpt lat="46.25622" lon="6.45598">
        <ele>1127</ele>
        <time>2020-08-30T17:23:54Z</time>
      </trkpt>
      <trkpt lat="46.2555" lon="6.45605">
        <ele>1130</ele>
        <time>2020-08-30T17:24:11Z</time>
      </trkpt>
      <trkpt lat="46.25466" lon="6.45589">
        <ele>1137</ele>
        <time>2020-08-30T17:24:31Z</time>
      </trkpt>
      <trkpt lat="46.25444" lon="6.45578">
        <ele>1138</ele>
        <time>2020-08-30T17:24:36Z</time>
      </trkpt>
      <trkpt lat="46.25406" lon="6.45572">
        <ele>1134</ele>
        <time>2020-08-30T17:24:45Z</time>
      </trkpt>
      <trkpt lat="46.25387" lon="6.45564">
        <ele>1131</ele>
        <time>2020-08-30T17:24:50Z</time>
      </trkpt>
      <trkpt lat="46.25358" lon="6.45558">
        <ele>1127</ele>
        <time>2020-08-30T17:24:57Z</time>
      </trkpt>
      <trkpt lat="46.2532" lon="6.4553">
        <ele>1128</ele>
        <time>2020-08-30T17:25:07Z</time>
      </trkpt>
      <trkpt lat="46.25289" lon="6.4552">
        <ele>1125</ele>
        <time>2020-08-30T17:25:14Z</time>
      </trkpt>
      <trkpt lat="46.25219" lon="6.45472">
        <ele>1130</ele>
        <time>2020-08-30T17:25:32Z</time>
      </trkpt>
      <trkpt lat="46.2521" lon="6.45468">
        <ele>1130</ele>
        <time>2020-08-30T17:25:34Z</time>
      </trkpt>
      <trkpt lat="46.25167" lon="6.45466">
        <ele>1125</ele>
        <time>2020-08-30T17:25:44Z</time>
      </trkpt>
      <trkpt lat="46.25151" lon="6.45462">
        <ele>1124</ele>
        <time>2020-08-30T17:25:48Z</time>
      </trkpt>
      <trkpt lat="46.2512" lon="6.45442">
        <ele>1123</ele>
        <time>2020-08-30T17:25:56Z</time>
      </trkpt>
      <trkpt lat="46.25111" lon="6.45434">
        <ele>1122</ele>
        <time>2020-08-30T17:25:58Z</time>
      </trkpt>
      <trkpt lat="46.25104" lon="6.45422">
        <ele>1124</ele>
        <time>2020-08-30T17:26:01Z</time>
      </trkpt>
      <trkpt lat="46.25099" lon="6.45395">
        <ele>1125</ele>
        <time>2020-08-30T17:26:06Z</time>
      </trkpt>
      <trkpt lat="46.251" lon="6.45361">
        <ele>1127</ele>
        <time>2020-08-30T17:26:11Z</time>
      </trkpt>
      <trkpt lat="46.25103" lon="6.45348">
        <ele>1128</ele>
        <time>2020-08-30T17:26:13Z</time>
      </trkpt>
      <trkpt lat="46.25113" lon="6.45325">
        <ele>1130</ele>
        <time>2020-08-30T17:26:18Z</time>
      </trkpt>
      <trkpt lat="46.25136" lon="6.45294">
        <ele>1129</ele>
        <time>2020-08-30T17:26:25Z</time>
      </trkpt>
      <trkpt lat="46.25173" lon="6.45235">
        <ele>1127</ele>
        <time>2020-08-30T17:26:38Z</time>
      </trkpt>
      <trkpt lat="46.25194" lon="6.45223">
        <ele>1129</ele>
        <time>2020-08-30T17:26:43Z</time>
      </trkpt>
      <trkpt lat="46.25246" lon="6.45204">
        <ele>1136</ele>
        <time>2020-08-30T17:26:56Z</time>
      </trkpt>
      <trkpt lat="46.25271" lon="6.45183">
        <ele>1139</ele>
        <time>2020-08-30T17:27:02Z</time>
      </trkpt>
      <trkpt lat="46.25291" lon="6.45153">
        <ele>1140</ele>
        <time>2020-08-30T17:27:09Z</time>
      </trkpt>
      <trkpt lat="46.25317" lon="6.45084">
        <ele>1141</ele>
        <time>2020-08-30T17:27:22Z</time>
      </trkpt>
      <trkpt lat="46.25338" lon="6.45064">
        <ele>1147</ele>
        <time>2020-08-30T17:27:28Z</time>
      </trkpt>
      <trkpt lat="46.25343" lon="6.45051">
        <ele>1148</ele>
        <time>2020-08-30T17:27:30Z</time>
      </trkpt>
      <trkpt lat="46.25343" lon="6.45039">
        <ele>1148</ele>
        <time>2020-08-30T17:27:32Z</time>
      </trkpt>
      <trkpt lat="46.25334" lon="6.44977">
        <ele>1145</ele>
        <time>2020-08-30T17:27:42Z</time>
      </trkpt>
      <trkpt lat="46.25335" lon="6.44964">
        <ele>1145</ele>
        <time>2020-08-30T17:27:44Z</time>
      </trkpt>
      <trkpt lat="46.25341" lon="6.44943">
        <ele>1147</ele>
        <time>2020-08-30T17:27:48Z</time>
      </trkpt>
      <trkpt lat="46.2534" lon="6.44949">
        <ele>1147</ele>
        <time>2020-08-30T17:27:49Z</time>
      </trkpt>
      <trkpt lat="46.25341" lon="6.44943">
        <ele>1147</ele>
        <time>2020-08-30T17:27:50Z</time>
      </trkpt>
      <trkpt lat="46.25365" lon="6.4492">
        <ele>1154</ele>
        <time>2020-08-30T17:27:57Z</time>
      </trkpt>
      <trkpt lat="46.25376" lon="6.44903">
        <ele>1156</ele>
        <time>2020-08-30T17:28:00Z</time>
      </trkpt>
      <trkpt lat="46.25383" lon="6.44879">
        <ele>1158</ele>
        <time>2020-08-30T17:28:05Z</time>
      </trkpt>
      <trkpt lat="46.25388" lon="6.44758">
        <ele>1160</ele>
        <time>2020-08-30T17:28:24Z</time>
      </trkpt>
      <trkpt lat="46.25393" lon="6.44741">
        <ele>1164</ele>
        <time>2020-08-30T17:28:27Z</time>
      </trkpt>
      <trkpt lat="46.25436" lon="6.44867">
        <ele>1171</ele>
        <time>2020-08-30T17:28:50Z</time>
      </trkpt>
      <trkpt lat="46.25438" lon="6.44879">
        <ele>1172</ele>
        <time>2020-08-30T17:28:52Z</time>
      </trkpt>
      <trkpt lat="46.25435" lon="6.44911">
        <ele>1172</ele>
        <time>2020-08-30T17:28:57Z</time>
      </trkpt>
      <trkpt lat="46.25419" lon="6.44965">
        <ele>1168</ele>
        <time>2020-08-30T17:29:07Z</time>
      </trkpt>
      <trkpt lat="46.2542" lon="6.44977">
        <ele>1169</ele>
        <time>2020-08-30T17:29:09Z</time>
      </trkpt>
      <trkpt lat="46.25424" lon="6.44981">
        <ele>1170</ele>
        <time>2020-08-30T17:29:10Z</time>
      </trkpt>
      <trkpt lat="46.2543" lon="6.44976">
        <ele>1172</ele>
        <time>2020-08-30T17:29:11Z</time>
      </trkpt>
      <trkpt lat="46.25435" lon="6.44964">
        <ele>1173</ele>
        <time>2020-08-30T17:29:14Z</time>
      </trkpt>
      <trkpt lat="46.25445" lon="6.4496">
        <ele>1176</ele>
        <time>2020-08-30T17:29:16Z</time>
      </trkpt>
      <trkpt lat="46.25451" lon="6.44953">
        <ele>1178</ele>
        <time>2020-08-30T17:29:18Z</time>
      </trkpt>
      <trkpt lat="46.25461" lon="6.44926">
        <ele>1180</ele>
        <time>2020-08-30T17:29:23Z</time>
      </trkpt>
      <trkpt lat="46.25464" lon="6.44879">
        <ele>1179</ele>
        <time>2020-08-30T17:29:30Z</time>
      </trkpt>
      <trkpt lat="46.25467" lon="6.4487">
        <ele>1179</ele>
        <time>2020-08-30T17:29:32Z</time>
      </trkpt>
      <trkpt lat="46.25482" lon="6.44845">
        <ele>1182</ele>
        <time>2020-08-30T17:29:37Z</time>
      </trkpt>
      <trkpt lat="46.25487" lon="6.44839">
        <ele>1183</ele>
        <time>2020-08-30T17:29:39Z</time>
      </trkpt>
      <trkpt lat="46.25495" lon="6.44835">
        <ele>1185</ele>
        <time>2020-08-30T17:29:41Z</time>
      </trkpt>
      <trkpt lat="46.25546" lon="6.44818">
        <ele>1194</ele>
        <time>2020-08-30T17:29:53Z</time>
      </trkpt>
      <trkpt lat="46.25552" lon="6.44814">
        <ele>1195</ele>
        <time>2020-08-30T17:29:55Z</time>
      </trkpt>
      <trkpt lat="46.25559" lon="6.44804">
        <ele>1196</ele>
        <time>2020-08-30T17:29:57Z</time>
      </trkpt>
      <trkpt lat="46.25584" lon="6.44738">
        <ele>1203</ele>
        <time>2020-08-30T17:30:09Z</time>
      </trkpt>
      <trkpt lat="46.25576" lon="6.44724">
        <ele>1204</ele>
        <time>2020-08-30T17:30:12Z</time>
      </trkpt>
      <trkpt lat="46.25569" lon="6.44721">
        <ele>1204</ele>
        <time>2020-08-30T17:30:14Z</time>
      </trkpt>
      <trkpt lat="46.25488" lon="6.44711">
        <ele>1197</ele>
        <time>2020-08-30T17:30:33Z</time>
      </trkpt>
      <trkpt lat="46.25448" lon="6.44677">
        <ele>1200</ele>
        <time>2020-08-30T17:30:44Z</time>
      </trkpt>
      <trkpt lat="46.25359" lon="6.44621">
        <ele>1196</ele>
        <time>2020-08-30T17:31:06Z</time>
      </trkpt>
      <trkpt lat="46.25333" lon="6.4458">
        <ele>1203</ele>
        <time>2020-08-30T17:31:15Z</time>
      </trkpt>
      <trkpt lat="46.25299" lon="6.44552">
        <ele>1200</ele>
        <time>2020-08-30T17:31:24Z</time>
      </trkpt>
      <trkpt lat="46.25263" lon="6.44517">
        <ele>1196</ele>
        <time>2020-08-30T17:31:34Z</time>
      </trkpt>
      <trkpt lat="46.25254" lon="6.44516">
        <ele>1193</ele>
        <time>2020-08-30T17:31:37Z</time>
      </trkpt>
      <trkpt lat="46.25243" lon="6.4452">
        <ele>1190</ele>
        <time>2020-08-30T17:31:39Z</time>
      </trkpt>
      <trkpt lat="46.2523" lon="6.44518">
        <ele>1188</ele>
        <time>2020-08-30T17:31:42Z</time>
      </trkpt>
      <trkpt lat="46.25213" lon="6.44506">
        <ele>1186</ele>
        <time>2020-08-30T17:31:47Z</time>
      </trkpt>
      <trkpt lat="46.25207" lon="6.44495">
        <ele>1187</ele>
        <time>2020-08-30T17:31:49Z</time>
      </trkpt>
      <trkpt lat="46.25198" lon="6.44489">
        <ele>1186</ele>
        <time>2020-08-30T17:31:51Z</time>
      </trkpt>
      <trkpt lat="46.25175" lon="6.44487">
        <ele>1182</ele>
        <time>2020-08-30T17:31:57Z</time>
      </trkpt>
      <trkpt lat="46.25126" lon="6.44459">
        <ele>1172</ele>
        <time>2020-08-30T17:32:09Z</time>
      </trkpt>
      <trkpt lat="46.25117" lon="6.4445">
        <ele>1170</ele>
        <time>2020-08-30T17:32:11Z</time>
      </trkpt>
      <trkpt lat="46.25086" lon="6.44358">
        <ele>1167</ele>
        <time>2020-08-30T17:32:28Z</time>
      </trkpt>
      <trkpt lat="46.2508" lon="6.44349">
        <ele>1166</ele>
        <time>2020-08-30T17:32:30Z</time>
      </trkpt>
      <trkpt lat="46.25064" lon="6.44342">
        <ele>1165</ele>
        <time>2020-08-30T17:32:34Z</time>
      </trkpt>
      <trkpt lat="46.25023" lon="6.44351">
        <ele>1158</ele>
        <time>2020-08-30T17:32:44Z</time>
      </trkpt>
      <trkpt lat="46.25012" lon="6.44351">
        <ele>1156</ele>
        <time>2020-08-30T17:32:46Z</time>
      </trkpt>
      <trkpt lat="46.24996" lon="6.44337">
        <ele>1156</ele>
        <time>2020-08-30T17:32:51Z</time>
      </trkpt>
      <trkpt lat="46.24986" lon="6.44336">
        <ele>1156</ele>
        <time>2020-08-30T17:32:53Z</time>
      </trkpt>
      <trkpt lat="46.24964" lon="6.4434">
        <ele>1155</ele>
        <time>2020-08-30T17:32:58Z</time>
      </trkpt>
      <trkpt lat="46.24959" lon="6.44331">
        <ele>1155</ele>
        <time>2020-08-30T17:33:00Z</time>
      </trkpt>
      <trkpt lat="46.25003" lon="6.44238">
        <ele>1155</ele>
        <time>2020-08-30T17:33:18Z</time>
      </trkpt>
      <trkpt lat="46.25018" lon="6.44217">
        <ele>1154</ele>
        <time>2020-08-30T17:33:23Z</time>
      </trkpt>
      <trkpt lat="46.25038" lon="6.44197">
        <ele>1155</ele>
        <time>2020-08-30T17:33:29Z</time>
      </trkpt>
      <trkpt lat="46.25076" lon="6.44166">
        <ele>1157</ele>
        <time>2020-08-30T17:33:39Z</time>
      </trkpt>
      <trkpt lat="46.2513" lon="6.44143">
        <ele>1156</ele>
        <time>2020-08-30T17:33:52Z</time>
      </trkpt>
      <trkpt lat="46.25163" lon="6.44114">
        <ele>1150</ele>
        <time>2020-08-30T17:34:01Z</time>
      </trkpt>
      <trkpt lat="46.25278" lon="6.43969">
        <ele>1141</ele>
        <time>2020-08-30T17:34:37Z</time>
      </trkpt>
      <trkpt lat="46.25297" lon="6.43944">
        <ele>1142</ele>
        <time>2020-08-30T17:34:43Z</time>
      </trkpt>
      <trkpt lat="46.25312" lon="6.43891">
        <ele>1136</ele>
        <time>2020-08-30T17:34:52Z</time>
      </trkpt>
      <trkpt lat="46.25333" lon="6.43866">
        <ele>1135</ele>
        <time>2020-08-30T17:34:58Z</time>
      </trkpt>
      <trkpt lat="46.25348" lon="6.43862">
        <ele>1138</ele>
        <time>2020-08-30T17:35:02Z</time>
      </trkpt>
      <trkpt lat="46.25358" lon="6.43853">
        <ele>1138</ele>
        <time>2020-08-30T17:35:05Z</time>
      </trkpt>
      <trkpt lat="46.2536" lon="6.43825">
        <ele>1133</ele>
        <time>2020-08-30T17:35:09Z</time>
      </trkpt>
      <trkpt lat="46.25365" lon="6.43817">
        <ele>1133</ele>
        <time>2020-08-30T17:35:11Z</time>
      </trkpt>
      <trkpt lat="46.2537" lon="6.43815">
        <ele>1134</ele>
        <time>2020-08-30T17:35:12Z</time>
      </trkpt>
      <trkpt lat="46.25391" lon="6.43817">
        <ele>1138</ele>
        <time>2020-08-30T17:35:17Z</time>
      </trkpt>
      <trkpt lat="46.25429" lon="6.43814">
        <ele>1144</ele>
        <time>2020-08-30T17:35:26Z</time>
      </trkpt>
      <trkpt lat="46.25439" lon="6.43811">
        <ele>1145</ele>
        <time>2020-08-30T17:35:28Z</time>
      </trkpt>
      <trkpt lat="46.25461" lon="6.43798">
        <ele>1147</ele>
        <time>2020-08-30T17:35:34Z</time>
      </trkpt>
      <trkpt lat="46.25469" lon="6.43791">
        <ele>1147</ele>
        <time>2020-08-30T17:35:36Z</time>
      </trkpt>
      <trkpt lat="46.25501" lon="6.43736">
        <ele>1145</ele>
        <time>2020-08-30T17:35:48Z</time>
      </trkpt>
      <trkpt lat="46.25535" lon="6.43709">
        <ele>1148</ele>
        <time>2020-08-30T17:35:57Z</time>
      </trkpt>
      <trkpt lat="46.25551" lon="6.43702">
        <ele>1150</ele>
        <time>2020-08-30T17:36:01Z</time>
      </trkpt>
      <trkpt lat="46.2556" lon="6.43694">
        <ele>1151</ele>
        <time>2020-08-30T17:36:03Z</time>
      </trkpt>
      <trkpt lat="46.25569" lon="6.43694">
        <ele>1152</ele>
        <time>2020-08-30T17:36:05Z</time>
      </trkpt>
      <trkpt lat="46.25575" lon="6.43697">
        <ele>1152</ele>
        <time>2020-08-30T17:36:07Z</time>
      </trkpt>
      <trkpt lat="46.25584" lon="6.43711">
        <ele>1152</ele>
        <time>2020-08-30T17:36:10Z</time>
      </trkpt>
      <trkpt lat="46.25623" lon="6.43726">
        <ele>1154</ele>
        <time>2020-08-30T17:36:19Z</time>
      </trkpt>
      <trkpt lat="46.25623" lon="6.43678">
        <ele>1157</ele>
        <time>2020-08-30T17:36:27Z</time>
      </trkpt>
      <trkpt lat="46.25606" lon="6.43635">
        <ele>1157</ele>
        <time>2020-08-30T17:36:35Z</time>
      </trkpt>
      <trkpt lat="46.25588" lon="6.43598">
        <ele>1157</ele>
        <time>2020-08-30T17:36:42Z</time>
      </trkpt>
      <trkpt lat="46.25578" lon="6.43547">
        <ele>1158</ele>
        <time>2020-08-30T17:36:51Z</time>
      </trkpt>
      <trkpt lat="46.25539" lon="6.43466">
        <ele>1158</ele>
        <time>2020-08-30T17:37:07Z</time>
      </trkpt>
      <trkpt lat="46.25536" lon="6.43443">
        <ele>1160</ele>
        <time>2020-08-30T17:37:10Z</time>
      </trkpt>
      <trkpt lat="46.25538" lon="6.43419">
        <ele>1161</ele>
        <time>2020-08-30T17:37:14Z</time>
      </trkpt>
      <trkpt lat="46.25542" lon="6.43407">
        <ele>1163</ele>
        <time>2020-08-30T17:37:17Z</time>
      </trkpt>
      <trkpt lat="46.25528" lon="6.43403">
        <ele>1161</ele>
        <time>2020-08-30T17:37:20Z</time>
      </trkpt>
      <trkpt lat="46.25515" lon="6.43393">
        <ele>1160</ele>
        <time>2020-08-30T17:37:23Z</time>
      </trkpt>
      <trkpt lat="46.25483" lon="6.43381">
        <ele>1156</ele>
        <time>2020-08-30T17:37:31Z</time>
      </trkpt>
      <trkpt lat="46.25464" lon="6.43381">
        <ele>1154</ele>
        <time>2020-08-30T17:37:35Z</time>
      </trkpt>
      <trkpt lat="46.25453" lon="6.43387">
        <ele>1151</ele>
        <time>2020-08-30T17:37:38Z</time>
      </trkpt>
      <trkpt lat="46.25436" lon="6.43405">
        <ele>1148</ele>
        <time>2020-08-30T17:37:43Z</time>
      </trkpt>
      <trkpt lat="46.25419" lon="6.43375">
        <ele>1147</ele>
        <time>2020-08-30T17:37:49Z</time>
      </trkpt>
      <trkpt lat="46.2539" lon="6.43269">
        <ele>1152</ele>
        <time>2020-08-30T17:38:08Z</time>
      </trkpt>
      <trkpt lat="46.25368" lon="6.43213">
        <ele>1159</ele>
        <time>2020-08-30T17:38:18Z</time>
      </trkpt>
      <trkpt lat="46.25336" lon="6.43173">
        <ele>1165</ele>
        <time>2020-08-30T17:38:28Z</time>
      </trkpt>
      <trkpt lat="46.25279" lon="6.43128">
        <ele>1166</ele>
        <time>2020-08-30T17:38:43Z</time>
      </trkpt>
      <trkpt lat="46.25234" lon="6.43077">
        <ele>1172</ele>
        <time>2020-08-30T17:38:57Z</time>
      </trkpt>
      <trkpt lat="46.25199" lon="6.43045">
        <ele>1176</ele>
        <time>2020-08-30T17:39:06Z</time>
      </trkpt>
      <trkpt lat="46.25161" lon="6.43019">
        <ele>1177</ele>
        <time>2020-08-30T17:39:16Z</time>
      </trkpt>
      <trkpt lat="46.25146" lon="6.43004">
        <ele>1180</ele>
        <time>2020-08-30T17:39:20Z</time>
      </trkpt>
      <trkpt lat="46.25129" lon="6.42997">
        <ele>1181</ele>
        <time>2020-08-30T17:39:24Z</time>
      </trkpt>
      <trkpt lat="46.25114" lon="6.42997">
        <ele>1181</ele>
        <time>2020-08-30T17:39:28Z</time>
      </trkpt>
      <trkpt lat="46.25075" lon="6.4301">
        <ele>1178</ele>
        <time>2020-08-30T17:39:37Z</time>
      </trkpt>
      <trkpt lat="46.2506" lon="6.43008">
        <ele>1177</ele>
        <time>2020-08-30T17:39:41Z</time>
      </trkpt>
      <trkpt lat="46.25051" lon="6.42989">
        <ele>1181</ele>
        <time>2020-08-30T17:39:45Z</time>
      </trkpt>
      <trkpt lat="46.25041" lon="6.42942">
        <ele>1193</ele>
        <time>2020-08-30T17:39:52Z</time>
      </trkpt>
      <trkpt lat="46.25037" lon="6.42934">
        <ele>1195</ele>
        <time>2020-08-30T17:39:54Z</time>
      </trkpt>
      <trkpt lat="46.25031" lon="6.4293">
        <ele>1196</ele>
        <time>2020-08-30T17:39:56Z</time>
      </trkpt>
      <trkpt lat="46.25003" lon="6.42928">
        <ele>1198</ele>
        <time>2020-08-30T17:40:02Z</time>
      </trkpt>
      <trkpt lat="46.24981" lon="6.42934">
        <ele>1196</ele>
        <time>2020-08-30T17:40:07Z</time>
      </trkpt>
      <trkpt lat="46.24936" lon="6.42952">
        <ele>1190</ele>
        <time>2020-08-30T17:40:18Z</time>
      </trkpt>
      <trkpt lat="46.24923" lon="6.42949">
        <ele>1191</ele>
        <time>2020-08-30T17:40:21Z</time>
      </trkpt>
      <trkpt lat="46.24898" lon="6.4293">
        <ele>1193</ele>
        <time>2020-08-30T17:40:28Z</time>
      </trkpt>
      <trkpt lat="46.24881" lon="6.42912">
        <ele>1195</ele>
        <time>2020-08-30T17:40:33Z</time>
      </trkpt>
      <trkpt lat="46.24845" lon="6.42871">
        <ele>1196</ele>
        <time>2020-08-30T17:40:44Z</time>
      </trkpt>
      <trkpt lat="46.24813" lon="6.42826">
        <ele>1201</ele>
        <time>2020-08-30T17:40:54Z</time>
      </trkpt>
      <trkpt lat="46.24775" lon="6.42784">
        <ele>1211</ele>
        <time>2020-08-30T17:41:05Z</time>
      </trkpt>
      <trkpt lat="46.24685" lon="6.42706">
        <ele>1227</ele>
        <time>2020-08-30T17:41:30Z</time>
      </trkpt>
      <trkpt lat="46.24677" lon="6.42703">
        <ele>1227</ele>
        <time>2020-08-30T17:41:32Z</time>
      </trkpt>
      <trkpt lat="46.24661" lon="6.42703">
        <ele>1226</ele>
        <time>2020-08-30T17:41:35Z</time>
      </trkpt>
      <trkpt lat="46.2459" lon="6.42694">
        <ele>1229</ele>
        <time>2020-08-30T17:41:52Z</time>
      </trkpt>
      <trkpt lat="46.24528" lon="6.42665">
        <ele>1232</ele>
        <time>2020-08-30T17:42:07Z</time>
      </trkpt>
      <trkpt lat="46.24475" lon="6.42629">
        <ele>1233</ele>
        <time>2020-08-30T17:42:21Z</time>
      </trkpt>
      <trkpt lat="46.24419" lon="6.42585">
        <ele>1231</ele>
        <time>2020-08-30T17:42:36Z</time>
      </trkpt>
      <trkpt lat="46.24423" lon="6.42589">
        <ele>1231</ele>
        <time>2020-08-30T17:42:37Z</time>
      </trkpt>
      <trkpt lat="46.24437" lon="6.42589">
        <ele>1234</ele>
        <time>2020-08-30T17:42:40Z</time>
      </trkpt>
      <trkpt lat="46.24476" lon="6.42554">
        <ele>1245</ele>
        <time>2020-08-30T17:42:51Z</time>
      </trkpt>
      <trkpt lat="46.24538" lon="6.42516">
        <ele>1258</ele>
        <time>2020-08-30T17:43:07Z</time>
      </trkpt>
      <trkpt lat="46.24575" lon="6.42483">
        <ele>1265</ele>
        <time>2020-08-30T17:43:17Z</time>
      </trkpt>
      <trkpt lat="46.24592" lon="6.42451">
        <ele>1270</ele>
        <time>2020-08-30T17:43:23Z</time>
      </trkpt>
      <trkpt lat="46.24593" lon="6.42402">
        <ele>1276</ele>
        <time>2020-08-30T17:43:31Z</time>
      </trkpt>
      <trkpt lat="46.24602" lon="6.42368">
        <ele>1280</ele>
        <time>2020-08-30T17:43:37Z</time>
      </trkpt>
      <trkpt lat="46.24635" lon="6.42338">
        <ele>1285</ele>
        <time>2020-08-30T17:43:46Z</time>
      </trkpt>
      <trkpt lat="46.24706" lon="6.4232">
        <ele>1291</ele>
        <time>2020-08-30T17:44:03Z</time>
      </trkpt>
      <trkpt lat="46.24787" lon="6.42372">
        <ele>1295</ele>
        <time>2020-08-30T17:44:24Z</time>
      </trkpt>
      <trkpt lat="46.24917" lon="6.42428">
        <ele>1295</ele>
        <time>2020-08-30T17:44:55Z</time>
      </trkpt>
      <trkpt lat="46.25007" lon="6.42436">
        <ele>1296</ele>
        <time>2020-08-30T17:45:16Z</time>
      </trkpt>
      <trkpt lat="46.25056" lon="6.42466">
        <ele>1289</ele>
        <time>2020-08-30T17:45:29Z</time>
      </trkpt>
      <trkpt lat="46.25059" lon="6.42453">
        <ele>1287</ele>
        <time>2020-08-30T17:45:31Z</time>
      </trkpt>
      <trkpt lat="46.25138" lon="6.42485">
        <ele>1277</ele>
        <time>2020-08-30T17:45:50Z</time>
      </trkpt>
      <trkpt lat="46.25185" lon="6.42494">
        <ele>1271</ele>
        <time>2020-08-30T17:46:01Z</time>
      </trkpt>
      <trkpt lat="46.25209" lon="6.42504">
        <ele>1270</ele>
        <time>2020-08-30T17:46:07Z</time>
      </trkpt>
      <trkpt lat="46.25261" lon="6.42537">
        <ele>1267</ele>
        <time>2020-08-30T17:46:20Z</time>
      </trkpt>
      <trkpt lat="46.25327" lon="6.42595">
        <ele>1255</ele>
        <time>2020-08-30T17:46:38Z</time>
      </trkpt>
      <trkpt lat="46.25366" lon="6.42655">
        <ele>1242</ele>
        <time>2020-08-30T17:46:52Z</time>
      </trkpt>
      <trkpt lat="46.25378" lon="6.42678">
        <ele>1240</ele>
        <time>2020-08-30T17:46:56Z</time>
      </trkpt>
      <trkpt lat="46.25385" lon="6.42703">
        <ele>1238</ele>
        <time>2020-08-30T17:47:01Z</time>
      </trkpt>
      <trkpt lat="46.25408" lon="6.42743">
        <ele>1238</ele>
        <time>2020-08-30T17:47:09Z</time>
      </trkpt>
      <trkpt lat="46.25428" lon="6.42767">
        <ele>1236</ele>
        <time>2020-08-30T17:47:15Z</time>
      </trkpt>
      <trkpt lat="46.25464" lon="6.42795">
        <ele>1230</ele>
        <time>2020-08-30T17:47:25Z</time>
      </trkpt>
      <trkpt lat="46.25484" lon="6.42805">
        <ele>1229</ele>
        <time>2020-08-30T17:47:30Z</time>
      </trkpt>
      <trkpt lat="46.25502" lon="6.42818">
        <ele>1228</ele>
        <time>2020-08-30T17:47:34Z</time>
      </trkpt>
      <trkpt lat="46.25538" lon="6.42862">
        <ele>1224</ele>
        <time>2020-08-30T17:47:45Z</time>
      </trkpt>
      <trkpt lat="46.25623" lon="6.42948">
        <ele>1218</ele>
        <time>2020-08-30T17:48:10Z</time>
      </trkpt>
      <trkpt lat="46.25636" lon="6.42953">
        <ele>1217</ele>
        <time>2020-08-30T17:48:13Z</time>
      </trkpt>
      <trkpt lat="46.2564" lon="6.42957">
        <ele>1217</ele>
        <time>2020-08-30T17:48:14Z</time>
      </trkpt>
      <trkpt lat="46.25644" lon="6.42976">
        <ele>1218</ele>
        <time>2020-08-30T17:48:17Z</time>
      </trkpt>
      <trkpt lat="46.25655" lon="6.42993">
        <ele>1218</ele>
        <time>2020-08-30T17:48:21Z</time>
      </trkpt>
      <trkpt lat="46.2567" lon="6.42997">
        <ele>1218</ele>
        <time>2020-08-30T17:48:24Z</time>
      </trkpt>
      <trkpt lat="46.25688" lon="6.43007">
        <ele>1216</ele>
        <time>2020-08-30T17:48:29Z</time>
      </trkpt>
      <trkpt lat="46.25709" lon="6.43035">
        <ele>1212</ele>
        <time>2020-08-30T17:48:36Z</time>
      </trkpt>
      <trkpt lat="46.25716" lon="6.43035">
        <ele>1212</ele>
        <time>2020-08-30T17:48:37Z</time>
      </trkpt>
      <trkpt lat="46.25726" lon="6.43028">
        <ele>1211</ele>
        <time>2020-08-30T17:48:40Z</time>
      </trkpt>
      <trkpt lat="46.25732" lon="6.4303">
        <ele>1210</ele>
        <time>2020-08-30T17:48:41Z</time>
      </trkpt>
      <trkpt lat="46.25745" lon="6.4307">
        <ele>1210</ele>
        <time>2020-08-30T17:48:48Z</time>
      </trkpt>
      <trkpt lat="46.25743" lon="6.43076">
        <ele>1210</ele>
        <time>2020-08-30T17:48:50Z</time>
      </trkpt>
      <trkpt lat="46.25783" lon="6.43028">
        <ele>1201</ele>
        <time>2020-08-30T17:49:02Z</time>
      </trkpt>
      <trkpt lat="46.25814" lon="6.43018">
        <ele>1194</ele>
        <time>2020-08-30T17:49:09Z</time>
      </trkpt>
      <trkpt lat="46.25836" lon="6.43024">
        <ele>1189</ele>
        <time>2020-08-30T17:49:14Z</time>
      </trkpt>
      <trkpt lat="46.25859" lon="6.43026">
        <ele>1183</ele>
        <time>2020-08-30T17:49:20Z</time>
      </trkpt>
      <trkpt lat="46.25882" lon="6.4299">
        <ele>1174</ele>
        <time>2020-08-30T17:49:28Z</time>
      </trkpt>
      <trkpt lat="46.25929" lon="6.42988">
        <ele>1162</ele>
        <time>2020-08-30T17:49:39Z</time>
      </trkpt>
      <trkpt lat="46.25954" lon="6.42983">
        <ele>1156</ele>
        <time>2020-08-30T17:49:44Z</time>
      </trkpt>
      <trkpt lat="46.25966" lon="6.42971">
        <ele>1149</ele>
        <time>2020-08-30T17:49:48Z</time>
      </trkpt>
      <trkpt lat="46.25968" lon="6.42963">
        <ele>1147</ele>
        <time>2020-08-30T17:49:49Z</time>
      </trkpt>
      <trkpt lat="46.25965" lon="6.42954">
        <ele>1144</ele>
        <time>2020-08-30T17:49:51Z</time>
      </trkpt>
      <trkpt lat="46.2596" lon="6.42945">
        <ele>1143</ele>
        <time>2020-08-30T17:49:53Z</time>
      </trkpt>
      <trkpt lat="46.25915" lon="6.429">
        <ele>1136</ele>
        <time>2020-08-30T17:50:06Z</time>
      </trkpt>
      <trkpt lat="46.25907" lon="6.42882">
        <ele>1131</ele>
        <time>2020-08-30T17:50:09Z</time>
      </trkpt>
      <trkpt lat="46.25903" lon="6.42853">
        <ele>1121</ele>
        <time>2020-08-30T17:50:14Z</time>
      </trkpt>
      <trkpt lat="46.25895" lon="6.4283">
        <ele>1115</ele>
        <time>2020-08-30T17:50:18Z</time>
      </trkpt>
      <trkpt lat="46.25897" lon="6.42779">
        <ele>1098</ele>
        <time>2020-08-30T17:50:26Z</time>
      </trkpt>
      <trkpt lat="46.25895" lon="6.42759">
        <ele>1092</ele>
        <time>2020-08-30T17:50:29Z</time>
      </trkpt>
      <trkpt lat="46.25888" lon="6.42748">
        <ele>1090</ele>
        <time>2020-08-30T17:50:32Z</time>
      </trkpt>
      <trkpt lat="46.25855" lon="6.42732">
        <ele>1091</ele>
        <time>2020-08-30T17:50:40Z</time>
      </trkpt>
      <trkpt lat="46.25821" lon="6.42709">
        <ele>1095</ele>
        <time>2020-08-30T17:50:49Z</time>
      </trkpt>
      <trkpt lat="46.258" lon="6.42653">
        <ele>1087</ele>
        <time>2020-08-30T17:50:59Z</time>
      </trkpt>
      <trkpt lat="46.25741" lon="6.4261">
        <ele>1097</ele>
        <time>2020-08-30T17:51:14Z</time>
      </trkpt>
      <trkpt lat="46.25697" lon="6.42541">
        <ele>1095</ele>
        <time>2020-08-30T17:51:30Z</time>
      </trkpt>
      <trkpt lat="46.25673" lon="6.42464">
        <ele>1089</ele>
        <time>2020-08-30T17:51:43Z</time>
      </trkpt>
      <trkpt lat="46.25637" lon="6.42438">
        <ele>1091</ele>
        <time>2020-08-30T17:51:53Z</time>
      </trkpt>
      <trkpt lat="46.25649" lon="6.4228">
        <ele>1077</ele>
        <time>2020-08-30T17:52:18Z</time>
      </trkpt>
      <trkpt lat="46.25682" lon="6.42181">
        <ele>1063</ele>
        <time>2020-08-30T17:52:36Z</time>
      </trkpt>
      <trkpt lat="46.25667" lon="6.42138">
        <ele>1066</ele>
        <time>2020-08-30T17:52:44Z</time>
      </trkpt>
      <trkpt lat="46.25643" lon="6.42087">
        <ele>1072</ele>
        <time>2020-08-30T17:52:54Z</time>
      </trkpt>
      <trkpt lat="46.25622" lon="6.42026">
        <ele>1076</ele>
        <time>2020-08-30T17:53:05Z</time>
      </trkpt>
      <trkpt lat="46.2561" lon="6.4196">
        <ele>1075</ele>
        <time>2020-08-30T17:53:16Z</time>
      </trkpt>
      <trkpt lat="46.25611" lon="6.419">
        <ele>1071</ele>
        <time>2020-08-30T17:53:25Z</time>
      </trkpt>
      <trkpt lat="46.25633" lon="6.41877">
        <ele>1065</ele>
        <time>2020-08-30T17:53:32Z</time>
      </trkpt>
      <trkpt lat="46.25661" lon="6.4189">
        <ele>1058</ele>
        <time>2020-08-30T17:53:39Z</time>
      </trkpt>
      <trkpt lat="46.25691" lon="6.41895">
        <ele>1051</ele>
        <time>2020-08-30T17:53:46Z</time>
      </trkpt>
      <trkpt lat="46.2574" lon="6.41861">
        <ele>1042</ele>
        <time>2020-08-30T17:53:58Z</time>
      </trkpt>
      <trkpt lat="46.25765" lon="6.41864">
        <ele>1035</ele>
        <time>2020-08-30T17:54:04Z</time>
      </trkpt>
      <trkpt lat="46.25783" lon="6.4186">
        <ele>1029</ele>
        <time>2020-08-30T17:54:09Z</time>
      </trkpt>
      <trkpt lat="46.25804" lon="6.41851">
        <ele>1021</ele>
        <time>2020-08-30T17:54:14Z</time>
      </trkpt>
      <trkpt lat="46.25803" lon="6.41807">
        <ele>1021</ele>
        <time>2020-08-30T17:54:21Z</time>
      </trkpt>
      <trkpt lat="46.2581" lon="6.41772">
        <ele>1017</ele>
        <time>2020-08-30T17:54:27Z</time>
      </trkpt>
      <trkpt lat="46.25808" lon="6.41692">
        <ele>1016</ele>
        <time>2020-08-30T17:54:40Z</time>
      </trkpt>
      <trkpt lat="46.25803" lon="6.41631">
        <ele>1014</ele>
        <time>2020-08-30T17:54:49Z</time>
      </trkpt>
      <trkpt lat="46.25783" lon="6.41581">
        <ele>1017</ele>
        <time>2020-08-30T17:54:59Z</time>
      </trkpt>
      <trkpt lat="46.25754" lon="6.41543">
        <ele>1021</ele>
        <time>2020-08-30T17:55:08Z</time>
      </trkpt>
      <trkpt lat="46.25728" lon="6.41516">
        <ele>1019</ele>
        <time>2020-08-30T17:55:15Z</time>
      </trkpt>
      <trkpt lat="46.25705" lon="6.41486">
        <ele>1014</ele>
        <time>2020-08-30T17:55:23Z</time>
      </trkpt>
      <trkpt lat="46.25689" lon="6.41457">
        <ele>1009</ele>
        <time>2020-08-30T17:55:29Z</time>
      </trkpt>
      <trkpt lat="46.25634" lon="6.41455">
        <ele>1008</ele>
        <time>2020-08-30T17:55:42Z</time>
      </trkpt>
      <trkpt lat="46.25634" lon="6.41464">
        <ele>1010</ele>
        <time>2020-08-30T17:55:43Z</time>
      </trkpt>
      <trkpt lat="46.25527" lon="6.41449">
        <ele>999</ele>
        <time>2020-08-30T17:56:08Z</time>
      </trkpt>
      <trkpt lat="46.25496" lon="6.41439">
        <ele>995</ele>
        <time>2020-08-30T17:56:15Z</time>
      </trkpt>
      <trkpt lat="46.25446" lon="6.41364">
        <ele>980</ele>
        <time>2020-08-30T17:56:32Z</time>
      </trkpt>
      <trkpt lat="46.25421" lon="6.41342">
        <ele>977</ele>
        <time>2020-08-30T17:56:39Z</time>
      </trkpt>
      <trkpt lat="46.25378" lon="6.41328">
        <ele>983</ele>
        <time>2020-08-30T17:56:49Z</time>
      </trkpt>
      <trkpt lat="46.25365" lon="6.41307">
        <ele>983</ele>
        <time>2020-08-30T17:56:54Z</time>
      </trkpt>
      <trkpt lat="46.25317" lon="6.41108">
        <ele>962</ele>
        <time>2020-08-30T17:57:28Z</time>
      </trkpt>
      <trkpt lat="46.25317" lon="6.41082">
        <ele>959</ele>
        <time>2020-08-30T17:57:32Z</time>
      </trkpt>
      <trkpt lat="46.25338" lon="6.41014">
        <ele>951</ele>
        <time>2020-08-30T17:57:44Z</time>
      </trkpt>
      <trkpt lat="46.25341" lon="6.40988">
        <ele>950</ele>
        <time>2020-08-30T17:57:48Z</time>
      </trkpt>
      <trkpt lat="46.25337" lon="6.40977">
        <ele>951</ele>
        <time>2020-08-30T17:57:51Z</time>
      </trkpt>
      <trkpt lat="46.25333" lon="6.40973">
        <ele>951</ele>
        <time>2020-08-30T17:57:52Z</time>
      </trkpt>
      <trkpt lat="46.25308" lon="6.40967">
        <ele>959</ele>
        <time>2020-08-30T17:57:58Z</time>
      </trkpt>
      <trkpt lat="46.25257" lon="6.40949">
        <ele>972</ele>
        <time>2020-08-30T17:58:10Z</time>
      </trkpt>
      <trkpt lat="46.25254" lon="6.40932">
        <ele>973</ele>
        <time>2020-08-30T17:58:13Z</time>
      </trkpt>
      <trkpt lat="46.2526" lon="6.40917">
        <ele>970</ele>
        <time>2020-08-30T17:58:15Z</time>
      </trkpt>
      <trkpt lat="46.25304" lon="6.40876">
        <ele>960</ele>
        <time>2020-08-30T17:58:28Z</time>
      </trkpt>
      <trkpt lat="46.25309" lon="6.40861">
        <ele>960</ele>
        <time>2020-08-30T17:58:30Z</time>
      </trkpt>
      <trkpt lat="46.25307" lon="6.40861">
        <ele>960</ele>
        <time>2020-08-30T17:58:31Z</time>
      </trkpt>
      <trkpt lat="46.25307" lon="6.40856">
        <ele>960</ele>
        <time>2020-08-30T17:58:32Z</time>
      </trkpt>
      <trkpt lat="46.25276" lon="6.40838">
        <ele>967</ele>
        <time>2020-08-30T17:58:39Z</time>
      </trkpt>
      <trkpt lat="46.25246" lon="6.40799">
        <ele>970</ele>
        <time>2020-08-30T17:58:49Z</time>
      </trkpt>
      <trkpt lat="46.25216" lon="6.40754">
        <ele>970</ele>
        <time>2020-08-30T17:58:59Z</time>
      </trkpt>
      <trkpt lat="46.252" lon="6.40715">
        <ele>970</ele>
        <time>2020-08-30T17:59:06Z</time>
      </trkpt>
      <trkpt lat="46.25209" lon="6.40662">
        <ele>967</ele>
        <time>2020-08-30T17:59:15Z</time>
      </trkpt>
      <trkpt lat="46.25262" lon="6.40563">
        <ele>952</ele>
        <time>2020-08-30T17:59:35Z</time>
      </trkpt>
      <trkpt lat="46.25267" lon="6.40516">
        <ele>949</ele>
        <time>2020-08-30T17:59:43Z</time>
      </trkpt>
      <trkpt lat="46.25228" lon="6.40426">
        <ele>950</ele>
        <time>2020-08-30T18:00:00Z</time>
      </trkpt>
      <trkpt lat="46.25209" lon="6.40374">
        <ele>948</ele>
        <time>2020-08-30T18:00:10Z</time>
      </trkpt>
      <trkpt lat="46.25185" lon="6.40263">
        <ele>940</ele>
        <time>2020-08-30T18:00:28Z</time>
      </trkpt>
      <trkpt lat="46.25187" lon="6.4026">
        <ele>940</ele>
        <time>2020-08-30T18:00:29Z</time>
      </trkpt>
      <trkpt lat="46.25081" lon="6.40082">
        <ele>939</ele>
        <time>2020-08-30T18:01:07Z</time>
      </trkpt>
      <trkpt lat="46.25072" lon="6.4007">
        <ele>939</ele>
        <time>2020-08-30T18:01:10Z</time>
      </trkpt>
      <trkpt lat="46.25052" lon="6.40051">
        <ele>941</ele>
        <time>2020-08-30T18:01:15Z</time>
      </trkpt>
      <trkpt lat="46.25052" lon="6.40041">
        <ele>940</ele>
        <time>2020-08-30T18:01:17Z</time>
      </trkpt>
      <trkpt lat="46.25045" lon="6.40037">
        <ele>940</ele>
        <time>2020-08-30T18:01:19Z</time>
      </trkpt>
      <trkpt lat="46.24966" lon="6.39966">
        <ele>945</ele>
        <time>2020-08-30T18:01:41Z</time>
      </trkpt>
      <trkpt lat="46.24927" lon="6.39891">
        <ele>946</ele>
        <time>2020-08-30T18:01:56Z</time>
      </trkpt>
      <trkpt lat="46.2491" lon="6.39867">
        <ele>945</ele>
        <time>2020-08-30T18:02:01Z</time>
      </trkpt>
      <trkpt lat="46.24797" lon="6.39789">
        <ele>947</ele>
        <time>2020-08-30T18:02:31Z</time>
      </trkpt>
      <trkpt lat="46.24766" lon="6.39772">
        <ele>947</ele>
        <time>2020-08-30T18:02:38Z</time>
      </trkpt>
      <trkpt lat="46.24772" lon="6.39774">
        <ele>947</ele>
        <time>2020-08-30T18:02:40Z</time>
      </trkpt>
      <trkpt lat="46.24773" lon="6.39767">
        <ele>947</ele>
        <time>2020-08-30T18:02:41Z</time>
      </trkpt>
      <trkpt lat="46.24789" lon="6.39736">
        <ele>947</ele>
        <time>2020-08-30T18:02:47Z</time>
      </trkpt>
      <trkpt lat="46.24886" lon="6.39605">
        <ele>956</ele>
        <time>2020-08-30T18:03:18Z</time>
      </trkpt>
      <trkpt lat="46.24895" lon="6.3959">
        <ele>958</ele>
        <time>2020-08-30T18:03:21Z</time>
      </trkpt>
      <trkpt lat="46.24902" lon="6.39558">
        <ele>960</ele>
        <time>2020-08-30T18:03:27Z</time>
      </trkpt>
      <trkpt lat="46.24901" lon="6.39542">
        <ele>960</ele>
        <time>2020-08-30T18:03:29Z</time>
      </trkpt>
      <trkpt lat="46.24883" lon="6.39456">
        <ele>963</ele>
        <time>2020-08-30T18:03:44Z</time>
      </trkpt>
      <trkpt lat="46.24873" lon="6.39421">
        <ele>966</ele>
        <time>2020-08-30T18:03:50Z</time>
      </trkpt>
      <trkpt lat="46.24817" lon="6.39312">
        <ele>968</ele>
        <time>2020-08-30T18:04:12Z</time>
      </trkpt>
      <trkpt lat="46.24807" lon="6.39285">
        <ele>969</ele>
        <time>2020-08-30T18:04:17Z</time>
      </trkpt>
      <trkpt lat="46.24803" lon="6.39255">
        <ele>972</ele>
        <time>2020-08-30T18:04:22Z</time>
      </trkpt>
      <trkpt lat="46.24805" lon="6.39241">
        <ele>973</ele>
        <time>2020-08-30T18:04:24Z</time>
      </trkpt>
      <trkpt lat="46.2482" lon="6.39215">
        <ele>977</ele>
        <time>2020-08-30T18:04:30Z</time>
      </trkpt>
      <trkpt lat="46.24829" lon="6.39194">
        <ele>979</ele>
        <time>2020-08-30T18:04:34Z</time>
      </trkpt>
      <trkpt lat="46.24833" lon="6.39136">
        <ele>979</ele>
        <time>2020-08-30T18:04:43Z</time>
      </trkpt>
      <trkpt lat="46.2483" lon="6.39118">
        <ele>979</ele>
        <time>2020-08-30T18:04:46Z</time>
      </trkpt>
      <trkpt lat="46.24813" lon="6.39082">
        <ele>977</ele>
        <time>2020-08-30T18:04:53Z</time>
      </trkpt>
      <trkpt lat="46.24779" lon="6.39039">
        <ele>979</ele>
        <time>2020-08-30T18:05:03Z</time>
      </trkpt>
      <trkpt lat="46.24769" lon="6.39021">
        <ele>982</ele>
        <time>2020-08-30T18:05:07Z</time>
      </trkpt>
      <trkpt lat="46.24763" lon="6.39005">
        <ele>985</ele>
        <time>2020-08-30T18:05:10Z</time>
      </trkpt>
      <trkpt lat="46.24752" lon="6.38953">
        <ele>988</ele>
        <time>2020-08-30T18:05:19Z</time>
      </trkpt>
      <trkpt lat="46.24742" lon="6.38924">
        <ele>989</ele>
        <time>2020-08-30T18:05:24Z</time>
      </trkpt>
      <trkpt lat="46.24726" lon="6.38906">
        <ele>990</ele>
        <time>2020-08-30T18:05:29Z</time>
      </trkpt>
      <trkpt lat="46.2466" lon="6.38848">
        <ele>991</ele>
        <time>2020-08-30T18:05:47Z</time>
      </trkpt>
      <trkpt lat="46.24643" lon="6.38828">
        <ele>987</ele>
        <time>2020-08-30T18:05:52Z</time>
      </trkpt>
      <trkpt lat="46.24631" lon="6.388">
        <ele>984</ele>
        <time>2020-08-30T18:05:57Z</time>
      </trkpt>
      <trkpt lat="46.24615" lon="6.3874">
        <ele>981</ele>
        <time>2020-08-30T18:06:08Z</time>
      </trkpt>
      <trkpt lat="46.24609" lon="6.38725">
        <ele>981</ele>
        <time>2020-08-30T18:06:11Z</time>
      </trkpt>
      <trkpt lat="46.24588" lon="6.38694">
        <ele>983</ele>
        <time>2020-08-30T18:06:18Z</time>
      </trkpt>
      <trkpt lat="46.24566" lon="6.38667">
        <ele>987</ele>
        <time>2020-08-30T18:06:24Z</time>
      </trkpt>
      <trkpt lat="46.24517" lon="6.38595">
        <ele>992</ele>
        <time>2020-08-30T18:06:41Z</time>
      </trkpt>
      <trkpt lat="46.245" lon="6.38582">
        <ele>993</ele>
        <time>2020-08-30T18:06:45Z</time>
      </trkpt>
      <trkpt lat="46.24464" lon="6.3853">
        <ele>999</ele>
        <time>2020-08-30T18:06:57Z</time>
      </trkpt>
      <trkpt lat="46.24458" lon="6.38525">
        <ele>999</ele>
        <time>2020-08-30T18:06:59Z</time>
      </trkpt>
      <trkpt lat="46.24448" lon="6.38523">
        <ele>1001</ele>
        <time>2020-08-30T18:07:01Z</time>
      </trkpt>
      <trkpt lat="46.24439" lon="6.38526">
        <ele>1002</ele>
        <time>2020-08-30T18:07:03Z</time>
      </trkpt>
      <trkpt lat="46.24436" lon="6.38524">
        <ele>1002</ele>
        <time>2020-08-30T18:07:04Z</time>
      </trkpt>
      <trkpt lat="46.24433" lon="6.38513">
        <ele>1003</ele>
        <time>2020-08-30T18:07:06Z</time>
      </trkpt>
      <trkpt lat="46.24415" lon="6.38515">
        <ele>1005</ele>
        <time>2020-08-30T18:07:10Z</time>
      </trkpt>
      <trkpt lat="46.24397" lon="6.38525">
        <ele>1006</ele>
        <time>2020-08-30T18:07:15Z</time>
      </trkpt>
      <trkpt lat="46.24343" lon="6.38488">
        <ele>1008</ele>
        <time>2020-08-30T18:07:28Z</time>
      </trkpt>
      <trkpt lat="46.2432" lon="6.38438">
        <ele>1014</ele>
        <time>2020-08-30T18:07:38Z</time>
      </trkpt>
      <trkpt lat="46.24321" lon="6.38409">
        <ele>1016</ele>
        <time>2020-08-30T18:07:43Z</time>
      </trkpt>
      <trkpt lat="46.24311" lon="6.38367">
        <ele>1020</ele>
        <time>2020-08-30T18:07:50Z</time>
      </trkpt>
      <trkpt lat="46.24299" lon="6.38341">
        <ele>1024</ele>
        <time>2020-08-30T18:07:55Z</time>
      </trkpt>
      <trkpt lat="46.2428" lon="6.38316">
        <ele>1030</ele>
        <time>2020-08-30T18:08:01Z</time>
      </trkpt>
      <trkpt lat="46.24208" lon="6.38238">
        <ele>1043</ele>
        <time>2020-08-30T18:08:22Z</time>
      </trkpt>
      <trkpt lat="46.24202" lon="6.38226">
        <ele>1044</ele>
        <time>2020-08-30T18:08:25Z</time>
      </trkpt>
      <trkpt lat="46.24193" lon="6.38225">
        <ele>1046</ele>
        <time>2020-08-30T18:08:27Z</time>
      </trkpt>
      <trkpt lat="46.24178" lon="6.38207">
        <ele>1048</ele>
        <time>2020-08-30T18:08:31Z</time>
      </trkpt>
      <trkpt lat="46.24225" lon="6.38164">
        <ele>1043</ele>
        <time>2020-08-30T18:08:44Z</time>
      </trkpt>
      <trkpt lat="46.24171" lon="6.38143">
        <ele>1051</ele>
        <time>2020-08-30T18:08:57Z</time>
      </trkpt>
      <trkpt lat="46.24131" lon="6.3816">
        <ele>1051</ele>
        <time>2020-08-30T18:09:07Z</time>
      </trkpt>
      <trkpt lat="46.24119" lon="6.38128">
        <ele>1053</ele>
        <time>2020-08-30T18:09:13Z</time>
      </trkpt>
      <trkpt lat="46.24104" lon="6.38106">
        <ele>1054</ele>
        <time>2020-08-30T18:09:18Z</time>
      </trkpt>
      <trkpt lat="46.24098" lon="6.38078">
        <ele>1054</ele>
        <time>2020-08-30T18:09:23Z</time>
      </trkpt>
      <trkpt lat="46.24089" lon="6.38057">
        <ele>1056</ele>
        <time>2020-08-30T18:09:27Z</time>
      </trkpt>
      <trkpt lat="46.24064" lon="6.38021">
        <ele>1059</ele>
        <time>2020-08-30T18:09:35Z</time>
      </trkpt>
      <trkpt lat="46.24032" lon="6.37996">
        <ele>1060</ele>
        <time>2020-08-30T18:09:43Z</time>
      </trkpt>
      <trkpt lat="46.2401" lon="6.37972">
        <ele>1064</ele>
        <time>2020-08-30T18:09:50Z</time>
      </trkpt>
      <trkpt lat="46.23962" lon="6.37938">
        <ele>1069</ele>
        <time>2020-08-30T18:10:02Z</time>
      </trkpt>
      <trkpt lat="46.23925" lon="6.37906">
        <ele>1073</ele>
        <time>2020-08-30T18:10:12Z</time>
      </trkpt>
      <trkpt lat="46.23898" lon="6.37895">
        <ele>1074</ele>
        <time>2020-08-30T18:10:19Z</time>
      </trkpt>
      <trkpt lat="46.23876" lon="6.37883">
        <ele>1076</ele>
        <time>2020-08-30T18:10:24Z</time>
      </trkpt>
      <trkpt lat="46.23953" lon="6.37877">
        <ele>1077</ele>
        <time>2020-08-30T18:10:42Z</time>
      </trkpt>
      <trkpt lat="46.23977" lon="6.37885">
        <ele>1076</ele>
        <time>2020-08-30T18:10:48Z</time>
      </trkpt>
      <trkpt lat="46.23995" lon="6.37856">
        <ele>1078</ele>
        <time>2020-08-30T18:10:54Z</time>
      </trkpt>
      <trkpt lat="46.23997" lon="6.37831">
        <ele>1079</ele>
        <time>2020-08-30T18:10:58Z</time>
      </trkpt>
      <trkpt lat="46.23995" lon="6.3777">
        <ele>1079</ele>
        <time>2020-08-30T18:11:08Z</time>
      </trkpt>
      <trkpt lat="46.23983" lon="6.37728">
        <ele>1080</ele>
        <time>2020-08-30T18:11:16Z</time>
      </trkpt>
      <trkpt lat="46.23982" lon="6.37705">
        <ele>1081</ele>
        <time>2020-08-30T18:11:19Z</time>
      </trkpt>
      <trkpt lat="46.23983" lon="6.37673">
        <ele>1081</ele>
        <time>2020-08-30T18:11:25Z</time>
      </trkpt>
      <trkpt lat="46.23993" lon="6.37649">
        <ele>1082</ele>
        <time>2020-08-30T18:11:29Z</time>
      </trkpt>
      <trkpt lat="46.23996" lon="6.37631">
        <ele>1083</ele>
        <time>2020-08-30T18:11:32Z</time>
      </trkpt>
      <trkpt lat="46.23991" lon="6.37614">
        <ele>1085</ele>
        <time>2020-08-30T18:11:35Z</time>
      </trkpt>
      <trkpt lat="46.23973" lon="6.37578">
        <ele>1093</ele>
        <time>2020-08-30T18:11:42Z</time>
      </trkpt>
      <trkpt lat="46.23973" lon="6.37557">
        <ele>1095</ele>
        <time>2020-08-30T18:11:46Z</time>
      </trkpt>
      <trkpt lat="46.23968" lon="6.37543">
        <ele>1097</ele>
        <time>2020-08-30T18:11:48Z</time>
      </trkpt>
      <trkpt lat="46.23949" lon="6.37505">
        <ele>1105</ele>
        <time>2020-08-30T18:11:56Z</time>
      </trkpt>
      <trkpt lat="46.23868" lon="6.37437">
        <ele>1114</ele>
        <time>2020-08-30T18:12:18Z</time>
      </trkpt>
      <trkpt lat="46.23862" lon="6.37419">
        <ele>1115</ele>
        <time>2020-08-30T18:12:21Z</time>
      </trkpt>
      <trkpt lat="46.23862" lon="6.37354">
        <ele>1112</ele>
        <time>2020-08-30T18:12:31Z</time>
      </trkpt>
      <trkpt lat="46.23858" lon="6.37318">
        <ele>1111</ele>
        <time>2020-08-30T18:12:37Z</time>
      </trkpt>
      <trkpt lat="46.23847" lon="6.37295">
        <ele>1113</ele>
        <time>2020-08-30T18:12:42Z</time>
      </trkpt>
      <trkpt lat="46.23823" lon="6.3726">
        <ele>1116</ele>
        <time>2020-08-30T18:12:50Z</time>
      </trkpt>
      <trkpt lat="46.23783" lon="6.37212">
        <ele>1121</ele>
        <time>2020-08-30T18:13:02Z</time>
      </trkpt>
      <trkpt lat="46.23762" lon="6.37195">
        <ele>1124</ele>
        <time>2020-08-30T18:13:07Z</time>
      </trkpt>
      <trkpt lat="46.23762" lon="6.37197">
        <ele>1124</ele>
        <time>2020-08-30T18:13:08Z</time>
      </trkpt>
      <trkpt lat="46.23748" lon="6.37189">
        <ele>1126</ele>
        <time>2020-08-30T18:13:11Z</time>
      </trkpt>
      <trkpt lat="46.23714" lon="6.37158">
        <ele>1124</ele>
        <time>2020-08-30T18:13:21Z</time>
      </trkpt>
      <trkpt lat="46.23714" lon="6.37163">
        <ele>1124</ele>
        <time>2020-08-30T18:13:21Z</time>
      </trkpt>
      <trkpt lat="46.23718" lon="6.37138">
        <ele>1127</ele>
        <time>2020-08-30T18:13:26Z</time>
      </trkpt>
      <trkpt lat="46.23706" lon="6.37132">
        <ele>1127</ele>
        <time>2020-08-30T18:13:29Z</time>
      </trkpt>
      <trkpt lat="46.23689" lon="6.37129">
        <ele>1126</ele>
        <time>2020-08-30T18:13:33Z</time>
      </trkpt>
      <trkpt lat="46.23566" lon="6.37072">
        <ele>1128</ele>
        <time>2020-08-30T18:14:03Z</time>
      </trkpt>
      <trkpt lat="46.23503" lon="6.3705">
        <ele>1132</ele>
        <time>2020-08-30T18:14:18Z</time>
      </trkpt>
      <trkpt lat="46.23451" lon="6.3705">
        <ele>1132</ele>
        <time>2020-08-30T18:14:30Z</time>
      </trkpt>
      <trkpt lat="46.23404" lon="6.37059">
        <ele>1132</ele>
        <time>2020-08-30T18:14:41Z</time>
      </trkpt>
      <trkpt lat="46.23371" lon="6.37068">
        <ele>1135</ele>
        <time>2020-08-30T18:14:49Z</time>
      </trkpt>
      <trkpt lat="46.2333" lon="6.37098">
        <ele>1137</ele>
        <time>2020-08-30T18:15:00Z</time>
      </trkpt>
      <trkpt lat="46.23301" lon="6.37129">
        <ele>1141</ele>
        <time>2020-08-30T18:15:08Z</time>
      </trkpt>
      <trkpt lat="46.23269" lon="6.37167">
        <ele>1143</ele>
        <time>2020-08-30T18:15:18Z</time>
      </trkpt>
      <trkpt lat="46.23235" lon="6.37226">
        <ele>1137</ele>
        <time>2020-08-30T18:15:30Z</time>
      </trkpt>
      <trkpt lat="46.23209" lon="6.37276">
        <ele>1128</ele>
        <time>2020-08-30T18:15:40Z</time>
      </trkpt>
      <trkpt lat="46.23199" lon="6.37311">
        <ele>1119</ele>
        <time>2020-08-30T18:15:46Z</time>
      </trkpt>
      <trkpt lat="46.23179" lon="6.37355">
        <ele>1111</ele>
        <time>2020-08-30T18:15:55Z</time>
      </trkpt>
      <trkpt lat="46.23154" lon="6.37394">
        <ele>1110</ele>
        <time>2020-08-30T18:16:03Z</time>
      </trkpt>
      <trkpt lat="46.23135" lon="6.37413">
        <ele>1110</ele>
        <time>2020-08-30T18:16:09Z</time>
      </trkpt>
      <trkpt lat="46.23104" lon="6.3743">
        <ele>1110</ele>
        <time>2020-08-30T18:16:17Z</time>
      </trkpt>
      <trkpt lat="46.23067" lon="6.37442">
        <ele>1109</ele>
        <time>2020-08-30T18:16:25Z</time>
      </trkpt>
      <trkpt lat="46.23036" lon="6.37445">
        <ele>1106</ele>
        <time>2020-08-30T18:16:33Z</time>
      </trkpt>
      <trkpt lat="46.23008" lon="6.37442">
        <ele>1104</ele>
        <time>2020-08-30T18:16:39Z</time>
      </trkpt>
      <trkpt lat="46.22989" lon="6.37431">
        <ele>1105</ele>
        <time>2020-08-30T18:16:44Z</time>
      </trkpt>
      <trkpt lat="46.22954" lon="6.37417">
        <ele>1102</ele>
        <time>2020-08-30T18:16:53Z</time>
      </trkpt>
      <trkpt lat="46.22886" lon="6.37374">
        <ele>1107</ele>
        <time>2020-08-30T18:17:10Z</time>
      </trkpt>
      <trkpt lat="46.22782" lon="6.37392">
        <ele>1105</ele>
        <time>2020-08-30T18:17:34Z</time>
      </trkpt>
      <trkpt lat="46.22755" lon="6.37392">
        <ele>1109</ele>
        <time>2020-08-30T18:17:41Z</time>
      </trkpt>
      <trkpt lat="46.2269" lon="6.37409">
        <ele>1102</ele>
        <time>2020-08-30T18:17:56Z</time>
      </trkpt>
      <trkpt lat="46.22636" lon="6.37404">
        <ele>1108</ele>
        <time>2020-08-30T18:18:09Z</time>
      </trkpt>
      <trkpt lat="46.22577" lon="6.37447">
        <ele>1101</ele>
        <time>2020-08-30T18:18:24Z</time>
      </trkpt>
      <trkpt lat="46.22527" lon="6.37473">
        <ele>1100</ele>
        <time>2020-08-30T18:18:37Z</time>
      </trkpt>
      <trkpt lat="46.22432" lon="6.37568">
        <ele>1083</ele>
        <time>2020-08-30T18:19:04Z</time>
      </trkpt>
      <trkpt lat="46.22542" lon="6.37549">
        <ele>1075</ele>
        <time>2020-08-30T18:19:29Z</time>
      </trkpt>
      <trkpt lat="46.2261" lon="6.37555">
        <ele>1062</ele>
        <time>2020-08-30T18:19:45Z</time>
      </trkpt>
      <trkpt lat="46.22736" lon="6.37647">
        <ele>1023</ele>
        <time>2020-08-30T18:20:18Z</time>
      </trkpt>
      <trkpt lat="46.22806" lon="6.37709">
        <ele>1010</ele>
        <time>2020-08-30T18:20:37Z</time>
      </trkpt>
      <trkpt lat="46.22874" lon="6.37814">
        <ele>990</ele>
        <time>2020-08-30T18:21:01Z</time>
      </trkpt>
      <trkpt lat="46.2291" lon="6.37824">
        <ele>988</ele>
        <time>2020-08-30T18:21:09Z</time>
      </trkpt>
      <trkpt lat="46.23004" lon="6.37819">
        <ele>984</ele>
        <time>2020-08-30T18:21:31Z</time>
      </trkpt>
      <trkpt lat="46.23033" lon="6.3783">
        <ele>978</ele>
        <time>2020-08-30T18:21:38Z</time>
      </trkpt>
      <trkpt lat="46.23159" lon="6.37807">
        <ele>972</ele>
        <time>2020-08-30T18:22:08Z</time>
      </trkpt>
      <trkpt lat="46.23178" lon="6.37814">
        <ele>970</ele>
        <time>2020-08-30T18:22:12Z</time>
      </trkpt>
      <trkpt lat="46.2322" lon="6.37815">
        <ele>971</ele>
        <time>2020-08-30T18:22:22Z</time>
      </trkpt>
      <trkpt lat="46.23255" lon="6.37823">
        <ele>970</ele>
        <time>2020-08-30T18:22:31Z</time>
      </trkpt>
      <trkpt lat="46.23258" lon="6.37804">
        <ele>974</ele>
        <time>2020-08-30T18:22:34Z</time>
      </trkpt>
      <trkpt lat="46.23347" lon="6.37803">
        <ele>979</ele>
        <time>2020-08-30T18:22:54Z</time>
      </trkpt>
      <trkpt lat="46.23426" lon="6.3786">
        <ele>981</ele>
        <time>2020-08-30T18:23:15Z</time>
      </trkpt>
      <trkpt lat="46.23449" lon="6.37901">
        <ele>984</ele>
        <time>2020-08-30T18:23:24Z</time>
      </trkpt>
      <trkpt lat="46.23485" lon="6.37893">
        <ele>993</ele>
        <time>2020-08-30T18:23:32Z</time>
      </trkpt>
      <trkpt lat="46.23493" lon="6.37915">
        <ele>996</ele>
        <time>2020-08-30T18:23:36Z</time>
      </trkpt>
      <trkpt lat="46.23494" lon="6.37927">
        <ele>999</ele>
        <time>2020-08-30T18:23:38Z</time>
      </trkpt>
      <trkpt lat="46.23484" lon="6.37953">
        <ele>1003</ele>
        <time>2020-08-30T18:23:43Z</time>
      </trkpt>
      <trkpt lat="46.23475" lon="6.37959">
        <ele>1001</ele>
        <time>2020-08-30T18:23:45Z</time>
      </trkpt>
      <trkpt lat="46.23399" lon="6.38086">
        <ele>1005</ele>
        <time>2020-08-30T18:24:12Z</time>
      </trkpt>
      <trkpt lat="46.23383" lon="6.38106">
        <ele>1002</ele>
        <time>2020-08-30T18:24:17Z</time>
      </trkpt>
      <trkpt lat="46.23335" lon="6.38149">
        <ele>992</ele>
        <time>2020-08-30T18:24:30Z</time>
      </trkpt>
      <trkpt lat="46.23318" lon="6.38177">
        <ele>988</ele>
        <time>2020-08-30T18:24:36Z</time>
      </trkpt>
      <trkpt lat="46.23279" lon="6.38214">
        <ele>974</ele>
        <time>2020-08-30T18:24:47Z</time>
      </trkpt>
      <trkpt lat="46.23272" lon="6.38262">
        <ele>973</ele>
        <time>2020-08-30T18:24:55Z</time>
      </trkpt>
      <trkpt lat="46.23274" lon="6.383">
        <ele>974</ele>
        <time>2020-08-30T18:25:01Z</time>
      </trkpt>
      <trkpt lat="46.23312" lon="6.38399">
        <ele>970</ele>
        <time>2020-08-30T18:25:20Z</time>
      </trkpt>
      <trkpt lat="46.2334" lon="6.38496">
        <ele>948</ele>
        <time>2020-08-30T18:25:37Z</time>
      </trkpt>
      <trkpt lat="46.23384" lon="6.38557">
        <ele>928</ele>
        <time>2020-08-30T18:25:51Z</time>
      </trkpt>
      <trkpt lat="46.23385" lon="6.38626">
        <ele>911</ele>
        <time>2020-08-30T18:26:02Z</time>
      </trkpt>
      <trkpt lat="46.23379" lon="6.38677">
        <ele>898</ele>
        <time>2020-08-30T18:26:10Z</time>
      </trkpt>
      <trkpt lat="46.23402" lon="6.38725">
        <ele>886</ele>
        <time>2020-08-30T18:26:20Z</time>
      </trkpt>
      <trkpt lat="46.2344" lon="6.38779">
        <ele>875</ele>
        <time>2020-08-30T18:26:32Z</time>
      </trkpt>
      <trkpt lat="46.23472" lon="6.38804">
        <ele>873</ele>
        <time>2020-08-30T18:26:41Z</time>
      </trkpt>
      <trkpt lat="46.23476" lon="6.38825">
        <ele>869</ele>
        <time>2020-08-30T18:26:44Z</time>
      </trkpt>
      <trkpt lat="46.23506" lon="6.38826">
        <ele>872</ele>
        <time>2020-08-30T18:26:51Z</time>
      </trkpt>
      <trkpt lat="46.2354" lon="6.3884">
        <ele>872</ele>
        <time>2020-08-30T18:27:00Z</time>
      </trkpt>
      <trkpt lat="46.23546" lon="6.38866">
        <ele>871</ele>
        <time>2020-08-30T18:27:04Z</time>
      </trkpt>
      <trkpt lat="46.23516" lon="6.38891">
        <ele>867</ele>
        <time>2020-08-30T18:27:12Z</time>
      </trkpt>
      <trkpt lat="46.23508" lon="6.38913">
        <ele>864</ele>
        <time>2020-08-30T18:27:16Z</time>
      </trkpt>
      <trkpt lat="46.23453" lon="6.38966">
        <ele>857</ele>
        <time>2020-08-30T18:27:32Z</time>
      </trkpt>
      <trkpt lat="46.23418" lon="6.39007">
        <ele>854</ele>
        <time>2020-08-30T18:27:42Z</time>
      </trkpt>
      <trkpt lat="46.23371" lon="6.39104">
        <ele>843</ele>
        <time>2020-08-30T18:28:01Z</time>
      </trkpt>
      <trkpt lat="46.2329" lon="6.39109">
        <ele>833</ele>
        <time>2020-08-30T18:28:20Z</time>
      </trkpt>
      <trkpt lat="46.23194" lon="6.39069">
        <ele>824</ele>
        <time>2020-08-30T18:28:43Z</time>
      </trkpt>
      <trkpt lat="46.23148" lon="6.39069">
        <ele>820</ele>
        <time>2020-08-30T18:28:54Z</time>
      </trkpt>
      <trkpt lat="46.23089" lon="6.39047">
        <ele>811</ele>
        <time>2020-08-30T18:29:08Z</time>
      </trkpt>
      <trkpt lat="46.23001" lon="6.3906">
        <ele>805</ele>
        <time>2020-08-30T18:29:29Z</time>
      </trkpt>
      <trkpt lat="46.22943" lon="6.39109">
        <ele>799</ele>
        <time>2020-08-30T18:29:45Z</time>
      </trkpt>
      <trkpt lat="46.22924" lon="6.3912">
        <ele>797</ele>
        <time>2020-08-30T18:29:50Z</time>
      </trkpt>
      <trkpt lat="46.22904" lon="6.39127">
        <ele>796</ele>
        <time>2020-08-30T18:29:54Z</time>
      </trkpt>
      <trkpt lat="46.22865" lon="6.39132">
        <ele>795</ele>
        <time>2020-08-30T18:30:04Z</time>
      </trkpt>
      <trkpt lat="46.22846" lon="6.39131">
        <ele>794</ele>
        <time>2020-08-30T18:30:08Z</time>
      </trkpt>
      <trkpt lat="46.22829" lon="6.39127">
        <ele>793</ele>
        <time>2020-08-30T18:30:12Z</time>
      </trkpt>
      <trkpt lat="46.22823" lon="6.39097">
        <ele>793</ele>
        <time>2020-08-30T18:30:17Z</time>
      </trkpt>
      <trkpt lat="46.22834" lon="6.39048">
        <ele>793</ele>
        <time>2020-08-30T18:30:25Z</time>
      </trkpt>
      <trkpt lat="46.22828" lon="6.39">
        <ele>793</ele>
        <time>2020-08-30T18:30:33Z</time>
      </trkpt>
      <trkpt lat="46.22793" lon="6.38937">
        <ele>791</ele>
        <time>2020-08-30T18:30:46Z</time>
      </trkpt>
      <trkpt lat="46.22775" lon="6.38922">
        <ele>791</ele>
        <time>2020-08-30T18:30:51Z</time>
      </trkpt>
      <trkpt lat="46.22747" lon="6.38908">
        <ele>792</ele>
        <time>2020-08-30T18:30:58Z</time>
      </trkpt>
      <trkpt lat="46.2271" lon="6.38873">
        <ele>790</ele>
        <time>2020-08-30T18:31:08Z</time>
      </trkpt>
      <trkpt lat="46.22662" lon="6.38858">
        <ele>785</ele>
        <time>2020-08-30T18:31:20Z</time>
      </trkpt>
      <trkpt lat="46.22628" lon="6.38843">
        <ele>783</ele>
        <time>2020-08-30T18:31:28Z</time>
      </trkpt>
      <trkpt lat="46.22602" lon="6.38804">
        <ele>782</ele>
        <time>2020-08-30T18:31:37Z</time>
      </trkpt>
      <trkpt lat="46.2256" lon="6.38686">
        <ele>786</ele>
        <time>2020-08-30T18:31:58Z</time>
      </trkpt>
      <trkpt lat="46.22501" lon="6.38669">
        <ele>787</ele>
        <time>2020-08-30T18:32:12Z</time>
      </trkpt>
      <trkpt lat="46.22461" lon="6.38664">
        <ele>783</ele>
        <time>2020-08-30T18:32:22Z</time>
      </trkpt>
      <trkpt lat="46.22409" lon="6.38596">
        <ele>799</ele>
        <time>2020-08-30T18:32:38Z</time>
      </trkpt>
      <trkpt lat="46.22379" lon="6.38581">
        <ele>798</ele>
        <time>2020-08-30T18:32:46Z</time>
      </trkpt>
      <trkpt lat="46.22339" lon="6.38552">
        <ele>800</ele>
        <time>2020-08-30T18:32:56Z</time>
      </trkpt>
      <trkpt lat="46.22297" lon="6.38529">
        <ele>803</ele>
        <time>2020-08-30T18:33:07Z</time>
      </trkpt>
      <trkpt lat="46.22268" lon="6.3852">
        <ele>803</ele>
        <time>2020-08-30T18:33:13Z</time>
      </trkpt>
      <trkpt lat="46.22244" lon="6.38497">
        <ele>809</ele>
        <time>2020-08-30T18:33:20Z</time>
      </trkpt>
      <trkpt lat="46.22226" lon="6.38497">
        <ele>808</ele>
        <time>2020-08-30T18:33:24Z</time>
      </trkpt>
      <trkpt lat="46.22208" lon="6.38491">
        <ele>809</ele>
        <time>2020-08-30T18:33:29Z</time>
      </trkpt>
      <trkpt lat="46.22158" lon="6.38485">
        <ele>809</ele>
        <time>2020-08-30T18:33:40Z</time>
      </trkpt>
      <trkpt lat="46.22122" lon="6.38475">
        <ele>814</ele>
        <time>2020-08-30T18:33:49Z</time>
      </trkpt>
      <trkpt lat="46.22072" lon="6.38466">
        <ele>818</ele>
        <time>2020-08-30T18:34:01Z</time>
      </trkpt>
      <trkpt lat="46.22048" lon="6.38464">
        <ele>819</ele>
        <time>2020-08-30T18:34:06Z</time>
      </trkpt>
      <trkpt lat="46.21943" lon="6.38487">
        <ele>808</ele>
        <time>2020-08-30T18:34:31Z</time>
      </trkpt>
      <trkpt lat="46.21899" lon="6.38491">
        <ele>806</ele>
        <time>2020-08-30T18:34:41Z</time>
      </trkpt>
      <trkpt lat="46.21861" lon="6.38498">
        <ele>806</ele>
        <time>2020-08-30T18:34:50Z</time>
      </trkpt>
      <trkpt lat="46.2182" lon="6.38561">
        <ele>789</ele>
        <time>2020-08-30T18:35:04Z</time>
      </trkpt>
      <trkpt lat="46.21729" lon="6.38589">
        <ele>790</ele>
        <time>2020-08-30T18:35:26Z</time>
      </trkpt>
      <trkpt lat="46.21683" lon="6.38593">
        <ele>791</ele>
        <time>2020-08-30T18:35:37Z</time>
      </trkpt>
      <trkpt lat="46.21624" lon="6.38585">
        <ele>790</ele>
        <time>2020-08-30T18:35:51Z</time>
      </trkpt>
      <trkpt lat="46.21565" lon="6.38566">
        <ele>789</ele>
        <time>2020-08-30T18:36:05Z</time>
      </trkpt>
      <trkpt lat="46.21546" lon="6.38566">
        <ele>789</ele>
        <time>2020-08-30T18:36:09Z</time>
      </trkpt>
      <trkpt lat="46.21551" lon="6.3864">
        <ele>782</ele>
        <time>2020-08-30T18:36:21Z</time>
      </trkpt>
      <trkpt lat="46.21563" lon="6.38739">
        <ele>776</ele>
        <time>2020-08-30T18:36:38Z</time>
      </trkpt>
      <trkpt lat="46.21549" lon="6.38784">
        <ele>775</ele>
        <time>2020-08-30T18:36:45Z</time>
      </trkpt>
      <trkpt lat="46.2155" lon="6.38833">
        <ele>773</ele>
        <time>2020-08-30T18:36:53Z</time>
      </trkpt>
      <trkpt lat="46.21546" lon="6.38873">
        <ele>770</ele>
        <time>2020-08-30T18:37:00Z</time>
      </trkpt>
      <trkpt lat="46.21547" lon="6.38938">
        <ele>766</ele>
        <time>2020-08-30T18:37:10Z</time>
      </trkpt>
      <trkpt lat="46.21545" lon="6.38974">
        <ele>764</ele>
        <time>2020-08-30T18:37:16Z</time>
      </trkpt>
      <trkpt lat="46.2154" lon="6.39011">
        <ele>762</ele>
        <time>2020-08-30T18:37:22Z</time>
      </trkpt>
      <trkpt lat="46.21531" lon="6.39029">
        <ele>761</ele>
        <time>2020-08-30T18:37:26Z</time>
      </trkpt>
      <trkpt lat="46.21515" lon="6.39046">
        <ele>761</ele>
        <time>2020-08-30T18:37:31Z</time>
      </trkpt>
      <trkpt lat="46.2149" lon="6.39054">
        <ele>760</ele>
        <time>2020-08-30T18:37:37Z</time>
      </trkpt>
      <trkpt lat="46.2148" lon="6.39071">
        <ele>759</ele>
        <time>2020-08-30T18:37:40Z</time>
      </trkpt>
      <trkpt lat="46.2146" lon="6.39081">
        <ele>759</ele>
        <time>2020-08-30T18:37:45Z</time>
      </trkpt>
      <trkpt lat="46.21453" lon="6.39091">
        <ele>758</ele>
        <time>2020-08-30T18:37:47Z</time>
      </trkpt>
      <trkpt lat="46.21443" lon="6.39098">
        <ele>757</ele>
        <time>2020-08-30T18:37:50Z</time>
      </trkpt>
      <trkpt lat="46.2143" lon="6.39101">
        <ele>757</ele>
        <time>2020-08-30T18:37:53Z</time>
      </trkpt>
      <trkpt lat="46.21434" lon="6.39106">
        <ele>756</ele>
        <time>2020-08-30T18:37:54Z</time>
      </trkpt>
      <trkpt lat="46.21427" lon="6.39104">
        <ele>756</ele>
        <time>2020-08-30T18:37:56Z</time>
      </trkpt>
      <trkpt lat="46.21414" lon="6.39106">
        <ele>756</ele>
        <time>2020-08-30T18:37:59Z</time>
      </trkpt>
      <trkpt lat="46.21403" lon="6.39102">
        <ele>756</ele>
        <time>2020-08-30T18:38:02Z</time>
      </trkpt>
      <trkpt lat="46.21392" lon="6.39102">
        <ele>756</ele>
        <time>2020-08-30T18:38:04Z</time>
      </trkpt>
      <trkpt lat="46.21381" lon="6.39104">
        <ele>755</ele>
        <time>2020-08-30T18:38:07Z</time>
      </trkpt>
      <trkpt lat="46.21366" lon="6.39111">
        <ele>755</ele>
        <time>2020-08-30T18:38:11Z</time>
      </trkpt>
      <trkpt lat="46.21361" lon="6.39127">
        <ele>754</ele>
        <time>2020-08-30T18:38:13Z</time>
      </trkpt>
      <trkpt lat="46.2136" lon="6.39179">
        <ele>751</ele>
        <time>2020-08-30T18:38:22Z</time>
      </trkpt>
      <trkpt lat="46.21339" lon="6.39251">
        <ele>747</ele>
        <time>2020-08-30T18:38:34Z</time>
      </trkpt>
      <trkpt lat="46.21326" lon="6.39307">
        <ele>745</ele>
        <time>2020-08-30T18:38:44Z</time>
      </trkpt>
      <trkpt lat="46.21274" lon="6.39318">
        <ele>745</ele>
        <time>2020-08-30T18:38:56Z</time>
      </trkpt>
      <trkpt lat="46.21232" lon="6.39349">
        <ele>745</ele>
        <time>2020-08-30T18:39:07Z</time>
      </trkpt>
      <trkpt lat="46.21174" lon="6.39404">
        <ele>746</ele>
        <time>2020-08-30T18:39:23Z</time>
      </trkpt>
      <trkpt lat="46.21163" lon="6.39432">
        <ele>747</ele>
        <time>2020-08-30T18:39:29Z</time>
      </trkpt>
      <trkpt lat="46.21118" lon="6.39509">
        <ele>751</ele>
        <time>2020-08-30T18:39:45Z</time>
      </trkpt>
      <trkpt lat="46.21079" lon="6.39544">
        <ele>750</ele>
        <time>2020-08-30T18:39:56Z</time>
      </trkpt>
      <trkpt lat="46.21056" lon="6.39631">
        <ele>743</ele>
        <time>2020-08-30T18:40:11Z</time>
      </trkpt>
      <trkpt lat="46.20903" lon="6.39651">
        <ele>739</ele>
        <time>2020-08-30T18:40:47Z</time>
      </trkpt>
      <trkpt lat="46.20885" lon="6.39705">
        <ele>735</ele>
        <time>2020-08-30T18:40:56Z</time>
      </trkpt>
      <trkpt lat="46.20834" lon="6.39881">
        <ele>732</ele>
        <time>2020-08-30T18:41:27Z</time>
      </trkpt>
      <trkpt lat="46.20778" lon="6.39949">
        <ele>734</ele>
        <time>2020-08-30T18:41:44Z</time>
      </trkpt>
      <trkpt lat="46.20739" lon="6.40022">
        <ele>737</ele>
        <time>2020-08-30T18:41:59Z</time>
      </trkpt>
      <trkpt lat="46.20742" lon="6.40025">
        <ele>737</ele>
        <time>2020-08-30T18:42:00Z</time>
      </trkpt>
      <trkpt lat="46.20699" lon="6.40105">
        <ele>739</ele>
        <time>2020-08-30T18:42:16Z</time>
      </trkpt>
      <trkpt lat="46.20696" lon="6.40098">
        <ele>739</ele>
        <time>2020-08-30T18:42:18Z</time>
      </trkpt>
      <trkpt lat="46.20796" lon="6.40337">
        <ele>740</ele>
        <time>2020-08-30T18:43:03Z</time>
      </trkpt>
      <trkpt lat="46.20836" lon="6.40451">
        <ele>740</ele>
        <time>2020-08-30T18:43:23Z</time>
      </trkpt>
      <trkpt lat="46.20857" lon="6.40499">
        <ele>740</ele>
        <time>2020-08-30T18:43:33Z</time>
      </trkpt>
      <trkpt lat="46.20859" lon="6.4051">
        <ele>740</ele>
        <time>2020-08-30T18:43:34Z</time>
      </trkpt>
      <trkpt lat="46.20889" lon="6.40568">
        <ele>742</ele>
        <time>2020-08-30T18:43:46Z</time>
      </trkpt>
      <trkpt lat="46.20905" lon="6.40565">
        <ele>743</ele>
        <time>2020-08-30T18:43:50Z</time>
      </trkpt>
      <trkpt lat="46.20951" lon="6.40548">
        <ele>743</ele>
        <time>2020-08-30T18:44:01Z</time>
      </trkpt>
      <trkpt lat="46.20961" lon="6.40563">
        <ele>743</ele>
        <time>2020-08-30T18:44:04Z</time>
      </trkpt>
      <trkpt lat="46.20976" lon="6.40601">
        <ele>743</ele>
        <time>2020-08-30T18:44:11Z</time>
      </trkpt>
      <trkpt lat="46.21" lon="6.40705">
        <ele>743</ele>
        <time>2020-08-30T18:44:29Z</time>
      </trkpt>
      <trkpt lat="46.21053" lon="6.40861">
        <ele>743</ele>
        <time>2020-08-30T18:44:57Z</time>
      </trkpt>
      <trkpt lat="46.21091" lon="6.4094">
        <ele>743</ele>
        <time>2020-08-30T18:45:13Z</time>
      </trkpt>
      <trkpt lat="46.21183" lon="6.41183">
        <ele>747</ele>
        <time>2020-08-30T18:45:58Z</time>
      </trkpt>
      <trkpt lat="46.21195" lon="6.41203">
        <ele>747</ele>
        <time>2020-08-30T18:46:02Z</time>
      </trkpt>
      <trkpt lat="46.21221" lon="6.41227">
        <ele>748</ele>
        <time>2020-08-30T18:46:09Z</time>
      </trkpt>
      <trkpt lat="46.21215" lon="6.41271">
        <ele>748</ele>
        <time>2020-08-30T18:46:16Z</time>
      </trkpt>
      <trkpt lat="46.21238" lon="6.41331">
        <ele>748</ele>
        <time>2020-08-30T18:46:27Z</time>
      </trkpt>
      <trkpt lat="46.21249" lon="6.41389">
        <ele>752</ele>
        <time>2020-08-30T18:46:37Z</time>
      </trkpt>
      <trkpt lat="46.21235" lon="6.4143">
        <ele>755</ele>
        <time>2020-08-30T18:46:44Z</time>
      </trkpt>
      <trkpt lat="46.21264" lon="6.41481">
        <ele>754</ele>
        <time>2020-08-30T18:46:55Z</time>
      </trkpt>
      <trkpt lat="46.21301" lon="6.41539">
        <ele>755</ele>
        <time>2020-08-30T18:47:08Z</time>
      </trkpt>
      <trkpt lat="46.21304" lon="6.41604">
        <ele>756</ele>
        <time>2020-08-30T18:47:18Z</time>
      </trkpt>
      <trkpt lat="46.2129" lon="6.41664">
        <ele>762</ele>
        <time>2020-08-30T18:47:29Z</time>
      </trkpt>
      <trkpt lat="46.21283" lon="6.41711">
        <ele>763</ele>
        <time>2020-08-30T18:47:36Z</time>
      </trkpt>
      <trkpt lat="46.21293" lon="6.41767">
        <ele>762</ele>
        <time>2020-08-30T18:47:46Z</time>
      </trkpt>
      <trkpt lat="46.21307" lon="6.41827">
        <ele>761</ele>
        <time>2020-08-30T18:47:56Z</time>
      </trkpt>
      <trkpt lat="46.21299" lon="6.41898">
        <ele>761</ele>
        <time>2020-08-30T18:48:08Z</time>
      </trkpt>
      <trkpt lat="46.21286" lon="6.41971">
        <ele>764</ele>
        <time>2020-08-30T18:48:20Z</time>
      </trkpt>
      <trkpt lat="46.21295" lon="6.42142">
        <ele>767</ele>
        <time>2020-08-30T18:48:48Z</time>
      </trkpt>
      <trkpt lat="46.21332" lon="6.42209">
        <ele>767</ele>
        <time>2020-08-30T18:49:01Z</time>
      </trkpt>
      <trkpt lat="46.21341" lon="6.4228">
        <ele>768</ele>
        <time>2020-08-30T18:49:13Z</time>
      </trkpt>
      <trkpt lat="46.21335" lon="6.42348">
        <ele>767</ele>
        <time>2020-08-30T18:49:24Z</time>
      </trkpt>
      <trkpt lat="46.21323" lon="6.42395">
        <ele>768</ele>
        <time>2020-08-30T18:49:32Z</time>
      </trkpt>
      <trkpt lat="46.21329" lon="6.42449">
        <ele>768</ele>
        <time>2020-08-30T18:49:41Z</time>
      </trkpt>
      <trkpt lat="46.21353" lon="6.42503">
        <ele>771</ele>
        <time>2020-08-30T18:49:51Z</time>
      </trkpt>
      <trkpt lat="46.21369" lon="6.42556">
        <ele>770</ele>
        <time>2020-08-30T18:50:01Z</time>
      </trkpt>
      <trkpt lat="46.21433" lon="6.42595">
        <ele>775</ele>
        <time>2020-08-30T18:50:17Z</time>
      </trkpt>
      <trkpt lat="46.21488" lon="6.42657">
        <ele>781</ele>
        <time>2020-08-30T18:50:33Z</time>
      </trkpt>
      <trkpt lat="46.21512" lon="6.42737">
        <ele>778</ele>
        <time>2020-08-30T18:50:47Z</time>
      </trkpt>
      <trkpt lat="46.21519" lon="6.42818">
        <ele>773</ele>
        <time>2020-08-30T18:51:01Z</time>
      </trkpt>
      <trkpt lat="46.21559" lon="6.42863">
        <ele>771</ele>
        <time>2020-08-30T18:51:12Z</time>
      </trkpt>
      <trkpt lat="46.21586" lon="6.42938">
        <ele>769</ele>
        <time>2020-08-30T18:51:26Z</time>
      </trkpt>
      <trkpt lat="46.2162" lon="6.42968">
        <ele>770</ele>
        <time>2020-08-30T18:51:35Z</time>
      </trkpt>
      <trkpt lat="46.2166" lon="6.43009">
        <ele>772</ele>
        <time>2020-08-30T18:51:47Z</time>
      </trkpt>
      <trkpt lat="46.21657" lon="6.43054">
        <ele>771</ele>
        <time>2020-08-30T18:51:54Z</time>
      </trkpt>
      <trkpt lat="46.21644" lon="6.43101">
        <ele>770</ele>
        <time>2020-08-30T18:52:02Z</time>
      </trkpt>
      <trkpt lat="46.21642" lon="6.43164">
        <ele>772</ele>
        <time>2020-08-30T18:52:12Z</time>
      </trkpt>
      <trkpt lat="46.21645" lon="6.43241">
        <ele>773</ele>
        <time>2020-08-30T18:52:25Z</time>
      </trkpt>
      <trkpt lat="46.2166" lon="6.4328">
        <ele>773</ele>
        <time>2020-08-30T18:52:32Z</time>
      </trkpt>
      <trkpt lat="46.2174" lon="6.43318">
        <ele>772</ele>
        <time>2020-08-30T18:52:52Z</time>
      </trkpt>
      <trkpt lat="46.2177" lon="6.43341">
        <ele>771</ele>
        <time>2020-08-30T18:53:00Z</time>
      </trkpt>
      <trkpt lat="46.21778" lon="6.43364">
        <ele>772</ele>
        <time>2020-08-30T18:53:04Z</time>
      </trkpt>
      <trkpt lat="46.2178" lon="6.43403">
        <ele>772</ele>
        <time>2020-08-30T18:53:10Z</time>
      </trkpt>
      <trkpt lat="46.2179" lon="6.43422">
        <ele>772</ele>
        <time>2020-08-30T18:53:14Z</time>
      </trkpt>
      <trkpt lat="46.21811" lon="6.43427">
        <ele>773</ele>
        <time>2020-08-30T18:53:19Z</time>
      </trkpt>
      <trkpt lat="46.21867" lon="6.43433">
        <ele>773</ele>
        <time>2020-08-30T18:53:32Z</time>
      </trkpt>
      <trkpt lat="46.21914" lon="6.43444">
        <ele>774</ele>
        <time>2020-08-30T18:53:43Z</time>
      </trkpt>
      <trkpt lat="46.21943" lon="6.4346">
        <ele>774</ele>
        <time>2020-08-30T18:53:51Z</time>
      </trkpt>
      <trkpt lat="46.2195" lon="6.43423">
        <ele>774</ele>
        <time>2020-08-30T18:53:57Z</time>
      </trkpt>
      <trkpt lat="46.21979" lon="6.43448">
        <ele>775</ele>
        <time>2020-08-30T18:54:05Z</time>
      </trkpt>
      <trkpt lat="46.21996" lon="6.43479">
        <ele>775</ele>
        <time>2020-08-30T18:54:11Z</time>
      </trkpt>
      <trkpt lat="46.22019" lon="6.4351">
        <ele>776</ele>
        <time>2020-08-30T18:54:18Z</time>
      </trkpt>
      <trkpt lat="46.22033" lon="6.43542">
        <ele>779</ele>
        <time>2020-08-30T18:54:24Z</time>
      </trkpt>
      <trkpt lat="46.2206" lon="6.43579">
        <ele>781</ele>
        <time>2020-08-30T18:54:33Z</time>
      </trkpt>
      <trkpt lat="46.22092" lon="6.43611">
        <ele>782</ele>
        <time>2020-08-30T18:54:42Z</time>
      </trkpt>
      <trkpt lat="46.22102" lon="6.4363">
        <ele>782</ele>
        <time>2020-08-30T18:54:46Z</time>
      </trkpt>
      <trkpt lat="46.22107" lon="6.43658">
        <ele>783</ele>
        <time>2020-08-30T18:54:51Z</time>
      </trkpt>
      <trkpt lat="46.22123" lon="6.43665">
        <ele>783</ele>
        <time>2020-08-30T18:54:55Z</time>
      </trkpt>
      <trkpt lat="46.22144" lon="6.43637">
        <ele>783</ele>
        <time>2020-08-30T18:55:01Z</time>
      </trkpt>
      <trkpt lat="46.22163" lon="6.4363">
        <ele>782</ele>
        <time>2020-08-30T18:55:06Z</time>
      </trkpt>
      <trkpt lat="46.22184" lon="6.43633">
        <ele>783</ele>
        <time>2020-08-30T18:55:11Z</time>
      </trkpt>
      <trkpt lat="46.222" lon="6.43643">
        <ele>783</ele>
        <time>2020-08-30T18:55:15Z</time>
      </trkpt>
      <trkpt lat="46.22211" lon="6.43655">
        <ele>784</ele>
        <time>2020-08-30T18:55:18Z</time>
      </trkpt>
      <trkpt lat="46.22225" lon="6.43712">
        <ele>786</ele>
        <time>2020-08-30T18:55:28Z</time>
      </trkpt>
      <trkpt lat="46.22264" lon="6.43711">
        <ele>786</ele>
        <time>2020-08-30T18:55:37Z</time>
      </trkpt>
      <trkpt lat="46.22286" lon="6.43716">
        <ele>787</ele>
        <time>2020-08-30T18:55:42Z</time>
      </trkpt>
      <trkpt lat="46.22298" lon="6.43727">
        <ele>787</ele>
        <time>2020-08-30T18:55:46Z</time>
      </trkpt>
      <trkpt lat="46.22315" lon="6.43766">
        <ele>788</ele>
        <time>2020-08-30T18:55:53Z</time>
      </trkpt>
      <trkpt lat="46.22331" lon="6.43784">
        <ele>788</ele>
        <time>2020-08-30T18:55:58Z</time>
      </trkpt>
      <trkpt lat="46.22343" lon="6.43807">
        <ele>788</ele>
        <time>2020-08-30T18:56:02Z</time>
      </trkpt>
      <trkpt lat="46.22354" lon="6.43859">
        <ele>788</ele>
        <time>2020-08-30T18:56:11Z</time>
      </trkpt>
      <trkpt lat="46.22362" lon="6.43875">
        <ele>788</ele>
        <time>2020-08-30T18:56:14Z</time>
      </trkpt>
      <trkpt lat="46.22379" lon="6.43886">
        <ele>788</ele>
        <time>2020-08-30T18:56:19Z</time>
      </trkpt>
      <trkpt lat="46.22406" lon="6.43915">
        <ele>789</ele>
        <time>2020-08-30T18:56:27Z</time>
      </trkpt>
      <trkpt lat="46.22406" lon="6.43949">
        <ele>790</ele>
        <time>2020-08-30T18:56:32Z</time>
      </trkpt>
      <trkpt lat="46.22401" lon="6.43988">
        <ele>790</ele>
        <time>2020-08-30T18:56:38Z</time>
      </trkpt>
      <trkpt lat="46.22428" lon="6.44012">
        <ele>792</ele>
        <time>2020-08-30T18:56:46Z</time>
      </trkpt>
      <trkpt lat="46.22466" lon="6.44038">
        <ele>793</ele>
        <time>2020-08-30T18:56:56Z</time>
      </trkpt>
      <trkpt lat="46.22493" lon="6.4407">
        <ele>794</ele>
        <time>2020-08-30T18:57:04Z</time>
      </trkpt>
      <trkpt lat="46.22511" lon="6.44104">
        <ele>794</ele>
        <time>2020-08-30T18:57:11Z</time>
      </trkpt>
      <trkpt lat="46.22531" lon="6.44174">
        <ele>795</ele>
        <time>2020-08-30T18:57:23Z</time>
      </trkpt>
      <trkpt lat="46.2255" lon="6.44171">
        <ele>795</ele>
        <time>2020-08-30T18:57:27Z</time>
      </trkpt>
      <trkpt lat="46.22581" lon="6.44147">
        <ele>794</ele>
        <time>2020-08-30T18:57:36Z</time>
      </trkpt>
      <trkpt lat="46.22606" lon="6.44141">
        <ele>794</ele>
        <time>2020-08-30T18:57:42Z</time>
      </trkpt>
      <trkpt lat="46.22629" lon="6.44147">
        <ele>794</ele>
        <time>2020-08-30T18:57:47Z</time>
      </trkpt>
      <trkpt lat="46.22648" lon="6.44176">
        <ele>796</ele>
        <time>2020-08-30T18:57:53Z</time>
      </trkpt>
      <trkpt lat="46.22704" lon="6.44305">
        <ele>804</ele>
        <time>2020-08-30T18:58:18Z</time>
      </trkpt>
      <trkpt lat="46.22772" lon="6.44318">
        <ele>808</ele>
        <time>2020-08-30T18:58:34Z</time>
      </trkpt>
      <trkpt lat="46.22802" lon="6.44376">
        <ele>807</ele>
        <time>2020-08-30T18:58:46Z</time>
      </trkpt>
      <trkpt lat="46.22874" lon="6.4438">
        <ele>807</ele>
        <time>2020-08-30T18:59:03Z</time>
      </trkpt>
      <trkpt lat="46.22911" lon="6.44421">
        <ele>807</ele>
        <time>2020-08-30T18:59:14Z</time>
      </trkpt>
      <trkpt lat="46.22909" lon="6.44468">
        <ele>806</ele>
        <time>2020-08-30T18:59:21Z</time>
      </trkpt>
      <trkpt lat="46.22941" lon="6.44478">
        <ele>806</ele>
        <time>2020-08-30T18:59:29Z</time>
      </trkpt>
      <trkpt lat="46.2296" lon="6.44473">
        <ele>806</ele>
        <time>2020-08-30T18:59:33Z</time>
      </trkpt>
      <trkpt lat="46.23001" lon="6.44526">
        <ele>808</ele>
        <time>2020-08-30T18:59:46Z</time>
      </trkpt>
      <trkpt lat="46.23011" lon="6.44573">
        <ele>811</ele>
        <time>2020-08-30T18:59:54Z</time>
      </trkpt>
      <trkpt lat="46.23058" lon="6.44629">
        <ele>815</ele>
        <time>2020-08-30T19:00:08Z</time>
      </trkpt>
      <trkpt lat="46.23121" lon="6.44608">
        <ele>818</ele>
        <time>2020-08-30T19:00:23Z</time>
      </trkpt>
      <trkpt lat="46.23179" lon="6.44646">
        <ele>819</ele>
        <time>2020-08-30T19:00:38Z</time>
      </trkpt>
      <trkpt lat="46.23186" lon="6.44683">
        <ele>819</ele>
        <time>2020-08-30T19:00:44Z</time>
      </trkpt>
      <trkpt lat="46.23188" lon="6.44758">
        <ele>817</ele>
        <time>2020-08-30T19:00:57Z</time>
      </trkpt>
      <trkpt lat="46.23222" lon="6.4479">
        <ele>820</ele>
        <time>2020-08-30T19:01:06Z</time>
      </trkpt>
      <trkpt lat="46.23293" lon="6.44807">
        <ele>824</ele>
        <time>2020-08-30T19:01:23Z</time>
      </trkpt>
      <trkpt lat="46.23326" lon="6.44904">
        <ele>825</ele>
        <time>2020-08-30T19:01:40Z</time>
      </trkpt>
      <trkpt lat="46.23395" lon="6.44928">
        <ele>828</ele>
        <time>2020-08-30T19:01:57Z</time>
      </trkpt>
      <trkpt lat="46.23449" lon="6.44966">
        <ele>829</ele>
        <time>2020-08-30T19:02:11Z</time>
      </trkpt>
      <trkpt lat="46.23501" lon="6.44998">
        <ele>828</ele>
        <time>2020-08-30T19:02:24Z</time>
      </trkpt>
      <trkpt lat="46.23519" lon="6.45039">
        <ele>831</ele>
        <time>2020-08-30T19:02:32Z</time>
      </trkpt>
      <trkpt lat="46.23588" lon="6.45041">
        <ele>835</ele>
        <time>2020-08-30T19:02:48Z</time>
      </trkpt>
      <trkpt lat="46.23621" lon="6.45078">
        <ele>839</ele>
        <time>2020-08-30T19:02:58Z</time>
      </trkpt>
      <trkpt lat="46.23618" lon="6.45112">
        <ele>839</ele>
        <time>2020-08-30T19:03:03Z</time>
      </trkpt>
      <trkpt lat="46.23648" lon="6.45149">
        <ele>841</ele>
        <time>2020-08-30T19:03:13Z</time>
      </trkpt>
      <trkpt lat="46.23716" lon="6.45164">
        <ele>847</ele>
        <time>2020-08-30T19:03:29Z</time>
      </trkpt>
      <trkpt lat="46.23752" lon="6.45249">
        <ele>849</ele>
        <time>2020-08-30T19:03:45Z</time>
      </trkpt>
      <trkpt lat="46.23832" lon="6.45226">
        <ele>855</ele>
        <time>2020-08-30T19:04:04Z</time>
      </trkpt>
      <trkpt lat="46.2383" lon="6.45294">
        <ele>850</ele>
        <time>2020-08-30T19:04:15Z</time>
      </trkpt>
      <trkpt lat="46.23841" lon="6.45327">
        <ele>848</ele>
        <time>2020-08-30T19:04:21Z</time>
      </trkpt>
      <trkpt lat="46.23839" lon="6.45335">
        <ele>848</ele>
        <time>2020-08-30T19:04:22Z</time>
      </trkpt>
      <trkpt lat="46.23841" lon="6.45404">
        <ele>853</ele>
        <time>2020-08-30T19:04:33Z</time>
      </trkpt>
      <trkpt lat="46.23834" lon="6.45504">
        <ele>853</ele>
        <time>2020-08-30T19:04:49Z</time>
      </trkpt>
      <trkpt lat="46.23837" lon="6.45525">
        <ele>853</ele>
        <time>2020-08-30T19:04:53Z</time>
      </trkpt>
      <trkpt lat="46.2384" lon="6.45534">
        <ele>853</ele>
        <time>2020-08-30T19:04:55Z</time>
      </trkpt>
      <trkpt lat="46.23851" lon="6.45543">
        <ele>854</ele>
        <time>2020-08-30T19:04:58Z</time>
      </trkpt>
      <trkpt lat="46.23851" lon="6.45564">
        <ele>853</ele>
        <time>2020-08-30T19:05:01Z</time>
      </trkpt>
      <trkpt lat="46.23907" lon="6.45613">
        <ele>853</ele>
        <time>2020-08-30T19:05:16Z</time>
      </trkpt>
      <trkpt lat="46.23916" lon="6.45652">
        <ele>853</ele>
        <time>2020-08-30T19:05:23Z</time>
      </trkpt>
      <trkpt lat="46.23918" lon="6.45682">
        <ele>855</ele>
        <time>2020-08-30T19:05:28Z</time>
      </trkpt>
      <trkpt lat="46.23915" lon="6.45705">
        <ele>859</ele>
        <time>2020-08-30T19:05:31Z</time>
      </trkpt>
      <trkpt lat="46.23924" lon="6.45723">
        <ele>862</ele>
        <time>2020-08-30T19:05:35Z</time>
      </trkpt>
      <trkpt lat="46.2394" lon="6.45741">
        <ele>865</ele>
        <time>2020-08-30T19:05:40Z</time>
      </trkpt>
      <trkpt lat="46.23963" lon="6.45757">
        <ele>866</ele>
        <time>2020-08-30T19:05:46Z</time>
      </trkpt>
      <trkpt lat="46.23988" lon="6.45785">
        <ele>867</ele>
        <time>2020-08-30T19:05:53Z</time>
      </trkpt>
      <trkpt lat="46.24016" lon="6.45905">
        <ele>872</ele>
        <time>2020-08-30T19:06:14Z</time>
      </trkpt>
      <trkpt lat="46.24046" lon="6.45946">
        <ele>872</ele>
        <time>2020-08-30T19:06:23Z</time>
      </trkpt>
      <trkpt lat="46.24077" lon="6.45961">
        <ele>872</ele>
        <time>2020-08-30T19:06:31Z</time>
      </trkpt>
      <trkpt lat="46.24154" lon="6.4599">
        <ele>873</ele>
        <time>2020-08-30T19:06:49Z</time>
      </trkpt>
      <trkpt lat="46.24246" lon="6.46183">
        <ele>886</ele>
        <time>2020-08-30T19:07:27Z</time>
      </trkpt>
      <trkpt lat="46.24301" lon="6.4623">
        <ele>886</ele>
        <time>2020-08-30T19:07:42Z</time>
      </trkpt>
      <trkpt lat="46.24365" lon="6.46249">
        <ele>887</ele>
        <time>2020-08-30T19:07:57Z</time>
      </trkpt>
      <trkpt lat="46.24433" lon="6.46294">
        <ele>890</ele>
        <time>2020-08-30T19:08:15Z</time>
      </trkpt>
      <trkpt lat="46.24501" lon="6.4626">
        <ele>884</ele>
        <time>2020-08-30T19:08:32Z</time>
      </trkpt>
      <trkpt lat="46.24593" lon="6.46307">
        <ele>885</ele>
        <time>2020-08-30T19:08:55Z</time>
      </trkpt>
      <trkpt lat="46.24599" lon="6.46346">
        <ele>889</ele>
        <time>2020-08-30T19:09:01Z</time>
      </trkpt>
      <trkpt lat="46.24663" lon="6.46412">
        <ele>891</ele>
        <time>2020-08-30T19:09:19Z</time>
      </trkpt>
      <trkpt lat="46.24694" lon="6.46435">
        <ele>894</ele>
        <time>2020-08-30T19:09:27Z</time>
      </trkpt>
      <trkpt lat="46.24723" lon="6.4648">
        <ele>897</ele>
        <time>2020-08-30T19:09:37Z</time>
      </trkpt>
      <trkpt lat="46.24739" lon="6.46526">
        <ele>899</ele>
        <time>2020-08-30T19:09:46Z</time>
      </trkpt>
      <trkpt lat="46.24751" lon="6.46625">
        <ele>902</ele>
        <time>2020-08-30T19:10:02Z</time>
      </trkpt>
      <trkpt lat="46.24762" lon="6.46646">
        <ele>903</ele>
        <time>2020-08-30T19:10:06Z</time>
      </trkpt>
      <trkpt lat="46.24794" lon="6.46689">
        <ele>907</ele>
        <time>2020-08-30T19:10:16Z</time>
      </trkpt>
      <trkpt lat="46.24798" lon="6.46698">
        <ele>907</ele>
        <time>2020-08-30T19:10:18Z</time>
      </trkpt>
      <trkpt lat="46.24795" lon="6.46741">
        <ele>909</ele>
        <time>2020-08-30T19:10:25Z</time>
      </trkpt>
      <trkpt lat="46.2477" lon="6.46888">
        <ele>924</ele>
        <time>2020-08-30T19:10:50Z</time>
      </trkpt>
      <trkpt lat="46.24769" lon="6.46904">
        <ele>926</ele>
        <time>2020-08-30T19:10:52Z</time>
      </trkpt>
      <trkpt lat="46.24771" lon="6.46912">
        <ele>927</ele>
        <time>2020-08-30T19:10:54Z</time>
      </trkpt>
      <trkpt lat="46.2484" lon="6.46932">
        <ele>930</ele>
        <time>2020-08-30T19:11:10Z</time>
      </trkpt>
      <trkpt lat="46.24927" lon="6.47002">
        <ele>934</ele>
        <time>2020-08-30T19:11:33Z</time>
      </trkpt>
      <trkpt lat="46.25025" lon="6.47074">
        <ele>943</ele>
        <time>2020-08-30T19:11:59Z</time>
      </trkpt>
      <trkpt lat="46.24963" lon="6.47086">
        <ele>944</ele>
        <time>2020-08-30T19:12:14Z</time>
      </trkpt>
      <trkpt lat="46.2493" lon="6.47109">
        <ele>946</ele>
        <time>2020-08-30T19:12:22Z</time>
      </trkpt>
      <trkpt lat="46.24886" lon="6.47152">
        <ele>948</ele>
        <time>2020-08-30T19:12:34Z</time>
      </trkpt>
      <trkpt lat="46.24853" lon="6.47166">
        <ele>948</ele>
        <time>2020-08-30T19:12:43Z</time>
      </trkpt>
      <trkpt lat="46.24847" lon="6.47184">
        <ele>949</ele>
        <time>2020-08-30T19:12:46Z</time>
      </trkpt>
      <trkpt lat="46.24846" lon="6.4721">
        <ele>951</ele>
        <time>2020-08-30T19:12:50Z</time>
      </trkpt>
      <trkpt lat="46.24854" lon="6.47275">
        <ele>955</ele>
        <time>2020-08-30T19:13:01Z</time>
      </trkpt>
    </trkseg>
  </trk>
</gpx>